QTR40X OTHH-YSSY
Flight info
| Callsign | QTR40X |
|---|---|
| Flight time | N/A |
| Altitude | 33000 |
| Route | BUNDU3E/34R BUNDU B415 SIXIV N318 TOLDA P570 EMURU M300 VASTU P895 BIKOK M641 KAT N640 PIPOV DCT 0630S09500E DCT EPGUP DCT 11S100E 15S105E DCT UPNOT DCT ONSLO DCT PBO DCT DALPA DCT 28S130E 2930S13500E DCT LEC DCT SAPED J141 NEWMO H39 VELGI Y105 TARAL Y59 RIVET |
| Aircraft | A359/H-SDE2E3GHIJ3J4J5LM1ORWXY/LB1D1 |
Departure
| Time | 2026-05-03 20:40 |
|---|---|
| Airport | Hamad International Airport (OTHH) |
Arrival
| Time | N/A |
|---|---|
| Airport | Sydney Kingsford Smith International Airport (YSSY) |
| Time | Latitude | Longitude | Altitude | Speed | Heading |
|---|---|---|---|---|---|
| 2026-05-03 20:32 | 25.26700 | 51.61318 | 34 ft | 0 kts | 158° |
| 2026-05-03 20:33 | 25.26683 | 51.61325 | 32 ft | 11 kts | 158° |
| 2026-05-03 20:34 | 25.26599 | 51.61362 | 36 ft | 13 kts | 158° |
| 2026-05-03 20:34 | 25.26511 | 51.61400 | 36 ft | 14 kts | 158° |
| 2026-05-03 20:34 | 25.26420 | 51.61442 | 36 ft | 14 kts | 150° |
| 2026-05-03 20:34 | 25.26403 | 51.61530 | 36 ft | 13 kts | 70° |
| 2026-05-03 20:35 | 25.26436 | 51.61625 | 36 ft | 13 kts | 68° |
| 2026-05-03 20:35 | 25.26471 | 51.61722 | 36 ft | 14 kts | 69° |
| 2026-05-03 20:35 | 25.26503 | 51.61825 | 36 ft | 12 kts | 83° |
| 2026-05-03 20:35 | 25.26531 | 51.61904 | 36 ft | 11 kts | 89° |
| 2026-05-03 20:36 | 25.26459 | 51.61967 | 36 ft | 15 kts | 159° |
| 2026-05-03 20:36 | 25.26348 | 51.62015 | 36 ft | 20 kts | 158° |
| 2026-05-03 20:36 | 25.26211 | 51.62075 | 36 ft | 21 kts | 158° |
| 2026-05-03 20:36 | 25.26074 | 51.62135 | 36 ft | 21 kts | 159° |
| 2026-05-03 20:37 | 25.25935 | 51.62196 | 36 ft | 22 kts | 158° |
| 2026-05-03 20:37 | 25.25790 | 51.62260 | 36 ft | 23 kts | 158° |
| 2026-05-03 20:37 | 25.25642 | 51.62326 | 36 ft | 23 kts | 158° |
| 2026-05-03 20:37 | 25.25585 | 51.62428 | 33 ft | 13 kts | 68° |
| 2026-05-03 20:38 | 25.25623 | 51.62523 | 33 ft | 15 kts | 61° |
| 2026-05-03 20:38 | 25.25705 | 51.62586 | 32 ft | 15 kts | 6° |
| 2026-05-03 20:38 | 25.25800 | 51.62566 | 32 ft | 13 kts | 338° |
| 2026-05-03 20:38 | 25.25821 | 51.62556 | 32 ft | 0 kts | 338° |
| 2026-05-03 20:39 | 25.25822 | 51.62556 | 32 ft | 1 kts | 338° |
| 2026-05-03 20:39 | 25.25993 | 51.62481 | 33 ft | 62 kts | 339° |
| 2026-05-03 20:39 | 25.26608 | 51.62211 | 32 ft | 129 kts | 338° |
| 2026-05-03 20:39 | 25.27618 | 51.61765 | 139 ft | 174 kts | 338° |
| 2026-05-03 20:40 | 25.28713 | 51.61284 | 959 ft | 164 kts | 339° |
| 2026-05-03 20:40 | 25.29737 | 51.60820 | 1742 ft | 156 kts | 339° |
| 2026-05-03 20:40 | 25.30733 | 51.60366 | 2423 ft | 158 kts | 339° |
| 2026-05-03 20:40 | 25.31809 | 51.59872 | 2862 ft | 175 kts | 337° |
| 2026-05-03 20:41 | 25.32964 | 51.59360 | 3474 ft | 182 kts | 338° |
| 2026-05-03 20:41 | 25.34222 | 51.59278 | 4226 ft | 184 kts | 19° |
| 2026-05-03 20:41 | 25.35066 | 51.60226 | 5195 ft | 175 kts | 66° |
| 2026-05-03 20:41 | 25.35156 | 51.61618 | 5585 ft | 200 kts | 95° |
| 2026-05-03 20:42 | 25.35091 | 51.63273 | 5864 ft | 229 kts | 83° |
| 2026-05-03 20:42 | 25.35361 | 51.65126 | 6119 ft | 260 kts | 72° |
| 2026-05-03 20:42 | 25.35917 | 51.67106 | 6844 ft | 267 kts | 67° |
| 2026-05-03 20:42 | 25.36528 | 51.68985 | 7895 ft | 262 kts | 67° |
| 2026-05-03 20:43 | 25.36771 | 51.71013 | 8638 ft | 277 kts | 95° |
| 2026-05-03 20:43 | 25.36420 | 51.73198 | 9051 ft | 302 kts | 103° |
| 2026-05-03 20:43 | 25.35907 | 51.75531 | 9559 ft | 319 kts | 104° |
| 2026-05-03 20:43 | 25.35384 | 51.77934 | 10272 ft | 325 kts | 103° |
| 2026-05-03 20:44 | 25.34861 | 51.80432 | 10716 ft | 342 kts | 102° |
| 2026-05-03 20:44 | 25.34325 | 51.83063 | 11070 ft | 360 kts | 102° |
| 2026-05-03 20:44 | 25.33770 | 51.85825 | 11448 ft | 375 kts | 102° |
| 2026-05-03 20:44 | 25.33199 | 51.88680 | 11979 ft | 384 kts | 101° |
| 2026-05-03 20:45 | 25.32618 | 51.91581 | 12653 ft | 388 kts | 101° |
| 2026-05-03 20:45 | 25.32036 | 51.94492 | 13371 ft | 390 kts | 101° |
| 2026-05-03 20:45 | 25.31451 | 51.97415 | 14045 ft | 392 kts | 101° |
| 2026-05-03 20:45 | 25.30860 | 52.00376 | 14613 ft | 397 kts | 101° |
| 2026-05-03 20:46 | 25.30260 | 52.03375 | 15194 ft | 401 kts | 101° |
| 2026-05-03 20:46 | 25.29649 | 52.06410 | 15778 ft | 406 kts | 102° |
| 2026-05-03 20:46 | 25.28763 | 52.09392 | 16331 ft | 412 kts | 115° |
| 2026-05-03 20:46 | 25.27951 | 52.10963 | 16681 ft | 414 kts | 124° |
| 2026-05-03 20:47 | 25.27588 | 52.11545 | 16808 ft | 415 kts | 126° |
| 2026-05-03 20:47 | 25.25238 | 52.14891 | 17614 ft | 419 kts | 129° |
| 2026-05-03 20:47 | 25.24028 | 52.16558 | 17986 ft | 421 kts | 129° |
| 2026-05-03 20:47 | 25.22186 | 52.19100 | 18469 ft | 424 kts | 129° |
| 2026-05-03 20:48 | 25.20349 | 52.21647 | 18942 ft | 427 kts | 129° |
| 2026-05-03 20:48 | 25.18484 | 52.24238 | 19408 ft | 430 kts | 129° |
| 2026-05-03 20:48 | 25.16620 | 52.26832 | 19898 ft | 433 kts | 129° |
| 2026-05-03 20:48 | 25.14746 | 52.29440 | 20356 ft | 436 kts | 129° |
| 2026-05-03 20:49 | 25.12847 | 52.32081 | 20844 ft | 439 kts | 129° |
| 2026-05-03 20:49 | 25.10950 | 52.34723 | 21354 ft | 442 kts | 129° |
| 2026-05-03 20:49 | 25.09035 | 52.37386 | 21840 ft | 445 kts | 129° |
| 2026-05-03 20:49 | 25.07102 | 52.40071 | 22318 ft | 448 kts | 129° |
| 2026-05-03 20:50 | 25.05157 | 52.42772 | 22772 ft | 451 kts | 129° |
| 2026-05-03 20:50 | 25.03204 | 52.45483 | 23219 ft | 453 kts | 129° |
| 2026-05-03 20:50 | 25.01330 | 52.48294 | 23595 ft | 457 kts | 122° |
| 2026-05-03 20:50 | 24.99920 | 52.51446 | 23919 ft | 461 kts | 111° |
| 2026-05-03 20:51 | 24.98809 | 52.54781 | 24186 ft | 466 kts | 109° |
| 2026-05-03 20:51 | 24.97792 | 52.58201 | 24501 ft | 470 kts | 108° |
| 2026-05-03 20:51 | 24.96813 | 52.61644 | 24905 ft | 471 kts | 107° |
| 2026-05-03 20:51 | 24.95832 | 52.65110 | 25229 ft | 475 kts | 108° |
| 2026-05-03 20:52 | 24.94833 | 52.68587 | 25556 ft | 479 kts | 108° |
| 2026-05-03 20:52 | 24.93870 | 52.72106 | 25863 ft | 482 kts | 105° |
| 2026-05-03 20:52 | 24.93003 | 52.75680 | 26190 ft | 485 kts | 104° |
| 2026-05-03 20:52 | 24.92171 | 52.79294 | 26483 ft | 490 kts | 104° |
| 2026-05-03 20:53 | 24.91329 | 52.82957 | 26765 ft | 493 kts | 104° |
| 2026-05-03 20:53 | 24.90473 | 52.86620 | 27082 ft | 497 kts | 104° |
| 2026-05-03 20:53 | 24.89604 | 52.90269 | 27378 ft | 500 kts | 105° |
| 2026-05-03 20:53 | 24.88708 | 52.93980 | 27688 ft | 504 kts | 105° |
| 2026-05-03 20:54 | 24.87793 | 52.97730 | 27977 ft | 507 kts | 105° |
| 2026-05-03 20:54 | 24.85942 | 53.05274 | 28534 ft | 514 kts | 105° |
| 2026-05-03 20:54 | 24.85010 | 53.09063 | 28865 ft | 516 kts | 105° |
| 2026-05-03 20:55 | 24.84070 | 53.12884 | 29151 ft | 519 kts | 105° |
| 2026-05-03 20:55 | 24.83124 | 53.16728 | 29429 ft | 522 kts | 105° |
| 2026-05-03 20:55 | 24.82169 | 53.20605 | 29687 ft | 525 kts | 105° |
| 2026-05-03 20:55 | 24.81212 | 53.24487 | 29942 ft | 528 kts | 105° |
| 2026-05-03 20:56 | 24.80249 | 53.28389 | 30160 ft | 531 kts | 105° |
| 2026-05-03 20:56 | 24.79275 | 53.32329 | 30390 ft | 533 kts | 105° |
| 2026-05-03 20:56 | 24.78301 | 53.36268 | 30633 ft | 535 kts | 105° |
| 2026-05-03 20:56 | 24.77322 | 53.40217 | 30874 ft | 537 kts | 105° |
| 2026-05-03 20:57 | 24.76333 | 53.44196 | 31108 ft | 538 kts | 106° |
| 2026-05-03 20:57 | 24.75341 | 53.48178 | 31337 ft | 540 kts | 106° |
| 2026-05-03 20:57 | 24.74343 | 53.52176 | 31551 ft | 542 kts | 106° |
| 2026-05-03 20:57 | 24.73351 | 53.56157 | 31819 ft | 542 kts | 106° |
| 2026-05-03 20:58 | 24.72352 | 53.60163 | 32020 ft | 544 kts | 106° |
| 2026-05-03 20:58 | 24.71350 | 53.64178 | 32225 ft | 546 kts | 106° |
| 2026-05-03 20:58 | 24.70341 | 53.68214 | 32423 ft | 547 kts | 107° |
| 2026-05-03 20:58 | 24.69331 | 53.72251 | 32664 ft | 547 kts | 107° |
| 2026-05-03 20:59 | 24.68317 | 53.76294 | 32782 ft | 551 kts | 107° |
| 2026-05-03 20:59 | 24.67293 | 53.80373 | 32792 ft | 556 kts | 107° |
| 2026-05-03 20:59 | 24.65217 | 53.88619 | 32792 ft | 564 kts | 107° |
| 2026-05-03 21:00 | 24.63469 | 53.95557 | 32790 ft | 568 kts | 107° |
| 2026-05-03 21:00 | 24.61234 | 54.05388 | 32790 ft | 571 kts | 104° |
| 2026-05-03 21:01 | 24.59409 | 54.13888 | 32787 ft | 572 kts | 104° |
| 2026-05-03 21:01 | 24.57542 | 54.22423 | 32785 ft | 570 kts | 104° |
| 2026-05-03 21:02 | 24.55680 | 54.30781 | 32785 ft | 557 kts | 104° |
| 2026-05-03 21:02 | 24.53834 | 54.39028 | 32799 ft | 555 kts | 104° |
| 2026-05-03 21:03 | 24.52246 | 54.47262 | 32800 ft | 556 kts | 102° |
| 2026-05-03 21:03 | 24.50411 | 54.55552 | 32770 ft | 555 kts | 108° |
| 2026-05-03 21:04 | 24.47963 | 54.63575 | 32775 ft | 553 kts | 110° |
| 2026-05-03 21:04 | 24.45403 | 54.71486 | 32775 ft | 553 kts | 111° |
| 2026-05-03 21:05 | 24.42808 | 54.79435 | 32777 ft | 554 kts | 110° |
| 2026-05-03 21:05 | 24.40215 | 54.87403 | 32782 ft | 555 kts | 110° |
| 2026-05-03 21:06 | 24.37625 | 54.95371 | 32792 ft | 555 kts | 110° |
| 2026-05-03 21:06 | 24.35030 | 55.03344 | 32811 ft | 556 kts | 110° |
| 2026-05-03 21:07 | 24.31668 | 55.10972 | 32819 ft | 557 kts | 123° |
| 2026-05-03 21:07 | 24.27538 | 55.18147 | 32830 ft | 556 kts | 125° |
| 2026-05-03 21:08 | 24.23305 | 55.25244 | 32830 ft | 556 kts | 125° |
| 2026-05-03 21:08 | 24.19077 | 55.32350 | 32827 ft | 557 kts | 123° |
| 2026-05-03 21:09 | 24.15671 | 55.39970 | 32838 ft | 558 kts | 114° |
| 2026-05-03 21:09 | 24.12633 | 55.47789 | 32837 ft | 558 kts | 113° |
| 2026-05-03 21:10 | 24.09639 | 55.55630 | 32839 ft | 559 kts | 113° |
| 2026-05-03 21:10 | 24.06635 | 55.63456 | 32841 ft | 560 kts | 114° |
| 2026-05-03 21:11 | 24.03361 | 55.71187 | 32850 ft | 560 kts | 119° |
| 2026-05-03 21:11 | 23.99649 | 55.78669 | 32867 ft | 559 kts | 120° |
| 2026-05-03 21:12 | 23.95942 | 55.86153 | 32872 ft | 560 kts | 119° |
| 2026-05-03 21:12 | 23.92305 | 55.93682 | 32878 ft | 560 kts | 118° |
| 2026-05-03 21:13 | 23.88698 | 56.01224 | 32887 ft | 560 kts | 118° |
| 2026-05-03 21:13 | 23.85095 | 56.08768 | 32881 ft | 559 kts | 118° |
| 2026-05-03 21:14 | 23.81485 | 56.16295 | 32888 ft | 559 kts | 118° |
| 2026-05-03 21:14 | 23.77875 | 56.23800 | 32887 ft | 559 kts | 118° |
| 2026-05-03 21:15 | 23.74252 | 56.31320 | 32892 ft | 559 kts | 118° |
| 2026-05-03 21:15 | 23.70626 | 56.38835 | 32889 ft | 559 kts | 118° |
| 2026-05-03 21:16 | 23.67009 | 56.46324 | 32888 ft | 559 kts | 118° |
| 2026-05-03 21:16 | 23.63377 | 56.53834 | 32888 ft | 558 kts | 118° |
| 2026-05-03 21:17 | 23.60344 | 56.60098 | 32891 ft | 558 kts | 118° |
| 2026-05-03 21:17 | 23.56129 | 56.68788 | 32887 ft | 559 kts | 118° |
| 2026-05-03 21:18 | 23.52459 | 56.76339 | 32882 ft | 559 kts | 118° |
| 2026-05-03 21:18 | 23.48840 | 56.83772 | 32892 ft | 558 kts | 118° |
| 2026-05-03 21:19 | 23.45203 | 56.91234 | 32888 ft | 558 kts | 118° |
| 2026-05-03 21:19 | 23.41555 | 56.98705 | 32897 ft | 558 kts | 118° |
| 2026-05-03 21:20 | 23.37933 | 57.06114 | 32887 ft | 553 kts | 118° |
| 2026-05-03 21:20 | 23.34436 | 57.13546 | 32906 ft | 552 kts | 116° |
| 2026-05-03 21:21 | 23.31093 | 57.21050 | 32895 ft | 552 kts | 116° |
| 2026-05-03 21:21 | 23.27728 | 57.28569 | 32908 ft | 551 kts | 116° |
| 2026-05-03 21:22 | 23.24337 | 57.36059 | 32904 ft | 552 kts | 116° |
| 2026-05-03 21:22 | 23.20930 | 57.43536 | 32913 ft | 553 kts | 116° |
| 2026-05-03 21:23 | 23.17519 | 57.51011 | 32902 ft | 553 kts | 116° |
| 2026-05-03 21:23 | 23.14111 | 57.58476 | 32911 ft | 552 kts | 116° |
| 2026-05-03 21:24 | 23.10694 | 57.65947 | 32902 ft | 552 kts | 116° |
| 2026-05-03 21:24 | 23.07272 | 57.73416 | 32889 ft | 553 kts | 116° |
| 2026-05-03 21:25 | 23.03839 | 57.80901 | 32890 ft | 553 kts | 116° |
| 2026-05-03 21:25 | 23.00417 | 57.88354 | 32875 ft | 553 kts | 116° |
| 2026-05-03 21:26 | 22.96984 | 57.95809 | 32864 ft | 553 kts | 116° |
| 2026-05-03 21:26 | 22.93533 | 58.03293 | 32862 ft | 553 kts | 116° |
| 2026-05-03 21:27 | 22.90094 | 58.10737 | 32853 ft | 552 kts | 116° |
| 2026-05-03 21:27 | 22.86649 | 58.18182 | 32848 ft | 552 kts | 116° |
| 2026-05-03 21:28 | 22.83185 | 58.25660 | 32839 ft | 553 kts | 116° |
| 2026-05-03 21:28 | 22.80303 | 58.31873 | 32839 ft | 553 kts | 116° |
| 2026-05-03 21:29 | 22.76846 | 58.39315 | 32823 ft | 553 kts | 116° |
| 2026-05-03 21:29 | 22.73388 | 58.46746 | 32823 ft | 551 kts | 116° |
| 2026-05-03 21:30 | 22.69928 | 58.54171 | 32822 ft | 552 kts | 116° |
| 2026-05-03 21:30 | 22.65509 | 58.60888 | 32817 ft | 550 kts | 137° |
| 2026-05-03 21:31 | 22.62543 | 58.63500 | 32837 ft | 546 kts | 148° |
| 2026-05-03 21:31 | 22.59375 | 58.65754 | 32811 ft | 546 kts | 150° |
| 2026-05-03 21:31 | 22.52905 | 58.70017 | 32818 ft | 544 kts | 151° |
| 2026-05-03 21:32 | 22.46413 | 58.74215 | 32798 ft | 542 kts | 151° |
| 2026-05-03 21:32 | 22.39957 | 58.78427 | 32796 ft | 542 kts | 151° |
| 2026-05-03 21:33 | 22.33514 | 58.82657 | 32808 ft | 543 kts | 151° |
| 2026-05-03 21:33 | 22.27017 | 58.86927 | 32798 ft | 542 kts | 150° |
| 2026-05-03 21:34 | 22.21255 | 58.92097 | 32804 ft | 545 kts | 133° |
| 2026-05-03 21:34 | 22.16297 | 58.98271 | 32797 ft | 546 kts | 130° |
| 2026-05-03 21:35 | 22.11467 | 59.04598 | 32794 ft | 546 kts | 130° |
| 2026-05-03 21:35 | 22.06594 | 59.10974 | 32795 ft | 547 kts | 130° |
| 2026-05-03 21:36 | 22.01737 | 59.17275 | 32780 ft | 547 kts | 130° |
| 2026-05-03 21:36 | 21.96862 | 59.23569 | 32780 ft | 547 kts | 130° |
| 2026-05-03 21:37 | 21.91980 | 59.29863 | 32770 ft | 547 kts | 130° |
| 2026-05-03 21:37 | 21.87098 | 59.36151 | 32766 ft | 548 kts | 130° |
| 2026-05-03 21:38 | 21.82201 | 59.42451 | 32758 ft | 548 kts | 130° |
| 2026-05-03 21:38 | 21.77310 | 59.48737 | 32755 ft | 548 kts | 130° |
| 2026-05-03 21:39 | 21.72416 | 59.55020 | 32750 ft | 548 kts | 130° |
| 2026-05-03 21:39 | 21.67518 | 59.61300 | 32733 ft | 548 kts | 130° |
| 2026-05-03 21:40 | 21.62618 | 59.67576 | 32739 ft | 548 kts | 130° |
| 2026-05-03 21:40 | 21.57725 | 59.73835 | 32742 ft | 547 kts | 130° |
| 2026-05-03 21:41 | 21.52836 | 59.80086 | 32741 ft | 547 kts | 130° |
| 2026-05-03 21:41 | 21.47917 | 59.86332 | 32739 ft | 547 kts | 130° |
| 2026-05-03 21:42 | 21.42996 | 59.92564 | 32733 ft | 548 kts | 130° |
| 2026-05-03 21:42 | 21.38075 | 59.98794 | 32743 ft | 547 kts | 130° |
| 2026-05-03 21:43 | 21.33160 | 60.05016 | 32742 ft | 546 kts | 130° |
| 2026-05-03 21:43 | 21.28243 | 60.11234 | 32746 ft | 546 kts | 130° |
| 2026-05-03 21:44 | 21.23332 | 60.17441 | 32750 ft | 546 kts | 130° |
| 2026-05-03 21:44 | 21.18425 | 60.23657 | 32740 ft | 547 kts | 130° |
| 2026-05-03 21:45 | 21.13506 | 60.29876 | 32744 ft | 546 kts | 130° |
| 2026-05-03 21:45 | 21.08590 | 60.36085 | 32747 ft | 546 kts | 130° |
| 2026-05-03 21:46 | 21.03682 | 60.42277 | 32750 ft | 546 kts | 130° |
| 2026-05-03 21:46 | 20.98774 | 60.48463 | 32753 ft | 546 kts | 130° |
| 2026-05-03 21:47 | 20.93850 | 60.54662 | 32750 ft | 546 kts | 130° |
| 2026-05-03 21:47 | 20.88930 | 60.60849 | 32753 ft | 545 kts | 130° |
| 2026-05-03 21:48 | 20.84008 | 60.67033 | 32751 ft | 545 kts | 130° |
| 2026-05-03 21:48 | 20.79090 | 60.73204 | 32752 ft | 545 kts | 130° |
| 2026-05-03 21:49 | 20.74176 | 60.79362 | 32753 ft | 546 kts | 130° |
| 2026-05-03 21:49 | 20.69239 | 60.85544 | 32752 ft | 545 kts | 130° |
| 2026-05-03 21:50 | 20.64360 | 60.91646 | 32758 ft | 544 kts | 130° |
| 2026-05-03 21:50 | 20.59837 | 60.98103 | 32754 ft | 543 kts | 123° |
| 2026-05-03 21:51 | 20.55705 | 61.04932 | 32763 ft | 544 kts | 122° |
| 2026-05-03 21:51 | 20.51679 | 61.11712 | 32753 ft | 545 kts | 121° |
| 2026-05-03 21:52 | 20.47616 | 61.18537 | 32754 ft | 545 kts | 121° |
| 2026-05-03 21:52 | 20.43551 | 61.25334 | 32753 ft | 543 kts | 122° |
| 2026-05-03 21:53 | 20.39484 | 61.32119 | 32760 ft | 543 kts | 122° |
| 2026-05-03 21:53 | 20.35415 | 61.38897 | 32755 ft | 544 kts | 122° |
| 2026-05-03 21:54 | 20.31334 | 61.45687 | 32756 ft | 544 kts | 122° |
| 2026-05-03 21:54 | 20.27246 | 61.52483 | 32757 ft | 544 kts | 122° |
| 2026-05-03 21:55 | 20.23166 | 61.59256 | 32758 ft | 543 kts | 122° |
| 2026-05-03 21:55 | 20.19087 | 61.66022 | 32758 ft | 542 kts | 122° |
| 2026-05-03 21:56 | 20.15011 | 61.72774 | 32756 ft | 542 kts | 122° |
| 2026-05-03 21:56 | 20.10933 | 61.79521 | 32757 ft | 542 kts | 122° |
| 2026-05-03 21:57 | 20.06847 | 61.86273 | 32758 ft | 542 kts | 122° |
| 2026-05-03 21:57 | 20.02761 | 61.93019 | 32754 ft | 542 kts | 122° |
| 2026-05-03 21:58 | 19.98690 | 61.99732 | 32761 ft | 540 kts | 122° |
| 2026-05-03 21:58 | 19.94615 | 62.06442 | 32761 ft | 539 kts | 122° |
| 2026-05-03 21:59 | 19.90545 | 62.13139 | 32761 ft | 540 kts | 122° |
| 2026-05-03 21:59 | 19.86474 | 62.19829 | 32761 ft | 540 kts | 122° |
| 2026-05-03 22:00 | 19.82393 | 62.26527 | 32763 ft | 541 kts | 122° |
| 2026-05-03 22:00 | 19.78293 | 62.33249 | 32761 ft | 542 kts | 122° |
| 2026-05-03 22:01 | 19.74202 | 62.39950 | 32764 ft | 542 kts | 122° |
| 2026-05-03 22:01 | 19.70102 | 62.46657 | 32764 ft | 542 kts | 122° |
| 2026-05-03 22:02 | 19.65994 | 62.53370 | 32764 ft | 542 kts | 122° |
| 2026-05-03 22:02 | 19.61886 | 62.60075 | 32764 ft | 543 kts | 122° |
| 2026-05-03 22:03 | 19.57762 | 62.66799 | 32764 ft | 544 kts | 122° |
| 2026-05-03 22:03 | 19.53646 | 62.73502 | 32766 ft | 542 kts | 122° |
| 2026-05-03 22:04 | 19.49534 | 62.80191 | 32765 ft | 540 kts | 122° |
| 2026-05-03 22:04 | 19.45424 | 62.86871 | 32769 ft | 541 kts | 122° |
| 2026-05-03 22:05 | 19.41306 | 62.93555 | 32768 ft | 542 kts | 122° |
| 2026-05-03 22:05 | 19.37183 | 63.00241 | 32771 ft | 542 kts | 122° |
| 2026-05-03 22:06 | 19.33066 | 63.06908 | 32775 ft | 542 kts | 122° |
| 2026-05-03 22:06 | 19.28939 | 63.13586 | 32768 ft | 541 kts | 121° |
| 2026-05-03 22:07 | 19.24815 | 63.20250 | 32767 ft | 541 kts | 121° |
| 2026-05-03 22:07 | 19.20689 | 63.26912 | 32768 ft | 541 kts | 121° |
| 2026-05-03 22:08 | 19.17253 | 63.32455 | 32774 ft | 541 kts | 122° |
| 2026-05-03 22:08 | 19.13124 | 63.39107 | 32770 ft | 541 kts | 122° |
| 2026-05-03 22:09 | 19.08992 | 63.45757 | 32770 ft | 541 kts | 121° |
| 2026-05-03 22:10 | 19.02786 | 63.55731 | 32768 ft | 541 kts | 121° |
| 2026-05-03 22:10 | 18.98655 | 63.62369 | 32769 ft | 540 kts | 121° |
| 2026-05-03 22:11 | 18.94516 | 63.69013 | 32772 ft | 540 kts | 121° |
| 2026-05-03 22:11 | 18.90378 | 63.75640 | 32770 ft | 541 kts | 121° |
| 2026-05-03 22:12 | 18.86235 | 63.82270 | 32772 ft | 542 kts | 121° |
| 2026-05-03 22:12 | 18.82081 | 63.88913 | 32769 ft | 541 kts | 121° |
| 2026-05-03 22:13 | 18.77945 | 63.95519 | 32772 ft | 538 kts | 121° |
| 2026-05-03 22:13 | 18.73818 | 64.02105 | 32769 ft | 538 kts | 121° |
| 2026-05-03 22:14 | 18.69686 | 64.08694 | 32773 ft | 539 kts | 121° |
| 2026-05-03 22:14 | 18.65546 | 64.15287 | 32774 ft | 539 kts | 121° |
| 2026-05-03 22:15 | 18.61403 | 64.21880 | 32767 ft | 539 kts | 121° |
| 2026-05-03 22:15 | 18.57267 | 64.28452 | 32772 ft | 538 kts | 121° |
| 2026-05-03 22:16 | 18.53136 | 64.35009 | 32774 ft | 535 kts | 121° |
| 2026-05-03 22:16 | 18.49042 | 64.41502 | 32775 ft | 535 kts | 121° |
| 2026-05-03 22:17 | 18.44893 | 64.48076 | 32772 ft | 535 kts | 121° |
| 2026-05-03 22:17 | 18.40773 | 64.54598 | 32778 ft | 535 kts | 121° |
| 2026-05-03 22:18 | 18.36650 | 64.61117 | 32780 ft | 535 kts | 122° |
| 2026-05-03 22:18 | 18.32550 | 64.67593 | 32776 ft | 535 kts | 122° |
| 2026-05-03 22:19 | 18.28438 | 64.74081 | 32776 ft | 531 kts | 122° |
| 2026-05-03 22:19 | 18.24337 | 64.80545 | 32781 ft | 530 kts | 122° |
| 2026-05-03 22:20 | 18.20245 | 64.86989 | 32784 ft | 530 kts | 122° |
| 2026-05-03 22:20 | 18.16140 | 64.93448 | 32783 ft | 531 kts | 122° |
| 2026-05-03 22:21 | 18.12035 | 64.99901 | 32774 ft | 531 kts | 122° |
| 2026-05-03 22:21 | 18.07926 | 65.06353 | 32782 ft | 532 kts | 122° |
| 2026-05-03 22:22 | 18.03813 | 65.12803 | 32782 ft | 531 kts | 122° |
| 2026-05-03 22:22 | 17.99698 | 65.19251 | 32783 ft | 531 kts | 122° |
| 2026-05-03 22:23 | 17.95584 | 65.25691 | 32785 ft | 531 kts | 122° |
| 2026-05-03 22:23 | 17.91466 | 65.32131 | 32784 ft | 531 kts | 122° |
| 2026-05-03 22:24 | 17.87345 | 65.38571 | 32781 ft | 531 kts | 122° |
| 2026-05-03 22:24 | 17.83220 | 65.45008 | 32788 ft | 532 kts | 122° |
| 2026-05-03 22:25 | 17.79092 | 65.51445 | 32786 ft | 531 kts | 122° |
| 2026-05-03 22:25 | 17.74973 | 65.57861 | 32787 ft | 530 kts | 122° |
| 2026-05-03 22:26 | 17.70851 | 65.64277 | 32789 ft | 530 kts | 122° |
| 2026-05-03 22:26 | 17.66724 | 65.70695 | 32787 ft | 531 kts | 122° |
| 2026-05-03 22:27 | 17.62595 | 65.77109 | 32791 ft | 531 kts | 122° |
| 2026-05-03 22:27 | 17.58511 | 65.83563 | 32791 ft | 531 kts | 121° |
| 2026-05-03 22:28 | 17.54540 | 65.90055 | 32793 ft | 530 kts | 121° |
| 2026-05-03 22:28 | 17.50553 | 65.96569 | 32793 ft | 530 kts | 121° |
| 2026-05-03 22:29 | 17.46554 | 66.03060 | 32798 ft | 530 kts | 121° |
| 2026-05-03 22:29 | 17.42542 | 66.09548 | 32795 ft | 530 kts | 121° |
| 2026-05-03 22:30 | 17.38529 | 66.16030 | 32797 ft | 530 kts | 121° |
| 2026-05-03 22:30 | 17.34517 | 66.22505 | 32799 ft | 530 kts | 121° |
| 2026-05-03 22:31 | 17.30494 | 66.28992 | 32802 ft | 531 kts | 121° |
| 2026-05-03 22:31 | 17.26476 | 66.35466 | 32800 ft | 531 kts | 122° |
| 2026-05-03 22:32 | 17.22466 | 66.41919 | 32804 ft | 532 kts | 122° |
| 2026-05-03 22:32 | 17.18425 | 66.48418 | 32801 ft | 531 kts | 122° |
| 2026-05-03 22:33 | 17.14392 | 66.54896 | 32802 ft | 532 kts | 122° |
| 2026-05-03 22:33 | 17.10355 | 66.61377 | 32800 ft | 532 kts | 122° |
| 2026-05-03 22:34 | 17.06311 | 66.67862 | 32800 ft | 533 kts | 122° |
| 2026-05-03 22:34 | 17.02262 | 66.74348 | 32804 ft | 532 kts | 122° |
| 2026-05-03 22:35 | 16.98221 | 66.80813 | 32803 ft | 530 kts | 122° |
| 2026-05-03 22:35 | 16.94216 | 66.87217 | 32801 ft | 530 kts | 122° |
| 2026-05-03 22:36 | 16.90180 | 66.93666 | 32801 ft | 531 kts | 122° |
| 2026-05-03 22:36 | 16.86138 | 67.00117 | 32801 ft | 531 kts | 122° |
| 2026-05-03 22:37 | 16.82098 | 67.06559 | 32804 ft | 531 kts | 122° |
| 2026-05-03 22:37 | 16.78050 | 67.13008 | 32802 ft | 531 kts | 122° |
| 2026-05-03 22:38 | 16.74000 | 67.19455 | 32803 ft | 530 kts | 122° |
| 2026-05-03 22:38 | 16.69958 | 67.25881 | 32806 ft | 530 kts | 122° |
| 2026-05-03 22:39 | 16.65917 | 67.32301 | 32801 ft | 530 kts | 122° |
| 2026-05-03 22:39 | 16.61867 | 67.38730 | 32803 ft | 530 kts | 122° |
| 2026-05-03 22:40 | 16.57819 | 67.45148 | 32809 ft | 530 kts | 122° |
| 2026-05-03 22:40 | 16.53768 | 67.51567 | 32806 ft | 530 kts | 122° |
| 2026-05-03 22:41 | 16.49714 | 67.57985 | 32809 ft | 530 kts | 122° |
| 2026-05-03 22:41 | 16.45658 | 67.64400 | 32807 ft | 529 kts | 122° |
| 2026-05-03 22:42 | 16.41611 | 67.70793 | 32807 ft | 528 kts | 122° |
| 2026-05-03 22:42 | 16.37568 | 67.77176 | 32810 ft | 528 kts | 122° |
| 2026-05-03 22:43 | 16.33527 | 67.83551 | 32812 ft | 528 kts | 122° |
| 2026-05-03 22:43 | 16.29473 | 67.89939 | 32810 ft | 528 kts | 122° |
| 2026-05-03 22:44 | 16.25428 | 67.96312 | 32808 ft | 528 kts | 122° |
| 2026-05-03 22:44 | 16.21427 | 68.02672 | 32811 ft | 528 kts | 122° |
| 2026-05-03 22:45 | 16.17416 | 68.09060 | 32808 ft | 527 kts | 122° |
| 2026-05-03 22:45 | 16.13406 | 68.15434 | 32811 ft | 526 kts | 122° |
| 2026-05-03 22:46 | 16.09398 | 68.21795 | 32814 ft | 526 kts | 122° |
| 2026-05-03 22:46 | 16.05382 | 68.28159 | 32809 ft | 526 kts | 122° |
| 2026-05-03 22:47 | 16.01361 | 68.34525 | 32812 ft | 526 kts | 122° |
| 2026-05-03 22:47 | 15.97344 | 68.40881 | 32812 ft | 526 kts | 122° |
| 2026-05-03 22:48 | 15.93298 | 68.47276 | 32810 ft | 526 kts | 122° |
| 2026-05-03 22:48 | 15.89274 | 68.53631 | 32815 ft | 525 kts | 122° |
| 2026-05-03 22:49 | 15.85269 | 68.59951 | 32815 ft | 524 kts | 122° |
| 2026-05-03 22:49 | 15.81258 | 68.66276 | 32813 ft | 524 kts | 122° |
| 2026-05-03 22:50 | 15.77244 | 68.72600 | 32808 ft | 524 kts | 122° |
| 2026-05-03 22:50 | 15.73240 | 68.78901 | 32810 ft | 524 kts | 122° |
| 2026-05-03 22:51 | 15.69225 | 68.85216 | 32815 ft | 524 kts | 122° |
| 2026-05-03 22:51 | 15.65206 | 68.91531 | 32813 ft | 524 kts | 122° |
| 2026-05-03 22:52 | 15.61869 | 68.96772 | 32810 ft | 523 kts | 123° |
| 2026-05-03 22:52 | 15.57862 | 69.03057 | 32813 ft | 522 kts | 122° |
| 2026-05-03 22:53 | 15.53856 | 69.09337 | 32812 ft | 522 kts | 123° |
| 2026-05-03 22:53 | 15.49859 | 69.15598 | 32813 ft | 522 kts | 123° |
| 2026-05-03 22:54 | 15.45840 | 69.21887 | 32813 ft | 522 kts | 123° |
| 2026-05-03 22:54 | 15.41832 | 69.28155 | 32811 ft | 522 kts | 123° |
| 2026-05-03 22:55 | 15.37817 | 69.34427 | 32812 ft | 522 kts | 123° |
| 2026-05-03 22:55 | 15.33800 | 69.40699 | 32811 ft | 522 kts | 123° |
| 2026-05-03 22:56 | 15.29791 | 69.46953 | 32813 ft | 521 kts | 123° |
| 2026-05-03 22:56 | 15.25781 | 69.53201 | 32816 ft | 520 kts | 123° |
| 2026-05-03 22:57 | 15.21774 | 69.59442 | 32815 ft | 521 kts | 123° |
| 2026-05-03 22:57 | 15.17762 | 69.65686 | 32812 ft | 521 kts | 123° |
| 2026-05-03 22:58 | 15.13766 | 69.71899 | 32813 ft | 521 kts | 123° |
| 2026-05-03 22:58 | 15.09759 | 69.78145 | 32811 ft | 521 kts | 123° |
| 2026-05-03 22:59 | 15.05758 | 69.84458 | 32816 ft | 521 kts | 123° |
| 2026-05-03 22:59 | 15.01822 | 69.90674 | 32813 ft | 519 kts | 123° |
| 2026-05-03 23:00 | 14.97854 | 69.96927 | 32814 ft | 519 kts | 123° |
| 2026-05-03 23:00 | 14.93889 | 70.03164 | 32816 ft | 520 kts | 123° |
| 2026-05-03 23:01 | 14.89912 | 70.09413 | 32817 ft | 520 kts | 123° |
| 2026-05-03 23:01 | 14.85940 | 70.15649 | 32811 ft | 520 kts | 123° |
| 2026-05-03 23:02 | 14.81960 | 70.21894 | 32813 ft | 519 kts | 123° |
| 2026-05-03 23:02 | 14.77982 | 70.28130 | 32811 ft | 520 kts | 123° |
| 2026-05-03 23:03 | 14.73994 | 70.34375 | 32812 ft | 520 kts | 123° |
| 2026-05-03 23:03 | 14.70014 | 70.40605 | 32814 ft | 520 kts | 123° |
| 2026-05-03 23:04 | 14.66025 | 70.46846 | 32815 ft | 520 kts | 123° |
| 2026-05-03 23:04 | 14.62042 | 70.53070 | 32815 ft | 520 kts | 123° |
| 2026-05-03 23:05 | 14.58054 | 70.59299 | 32817 ft | 519 kts | 123° |
| 2026-05-03 23:05 | 14.54068 | 70.65519 | 32817 ft | 519 kts | 123° |
| 2026-05-03 23:06 | 14.50081 | 70.71735 | 32815 ft | 519 kts | 123° |
| 2026-05-03 23:06 | 14.46093 | 70.77947 | 32817 ft | 519 kts | 123° |
| 2026-05-03 23:07 | 14.42131 | 70.84116 | 32816 ft | 519 kts | 123° |
| 2026-05-03 23:07 | 14.38144 | 70.90317 | 32813 ft | 519 kts | 123° |
| 2026-05-03 23:08 | 14.34157 | 70.96521 | 32816 ft | 518 kts | 123° |
| 2026-05-03 23:08 | 14.30219 | 71.02746 | 32814 ft | 518 kts | 123° |
| 2026-05-03 23:09 | 14.26265 | 71.09027 | 32817 ft | 518 kts | 123° |
| 2026-05-03 23:09 | 14.22335 | 71.15252 | 32819 ft | 518 kts | 123° |
| 2026-05-03 23:10 | 14.18423 | 71.21437 | 32816 ft | 518 kts | 123° |
| 2026-05-03 23:10 | 14.14485 | 71.27653 | 32818 ft | 517 kts | 123° |
| 2026-05-03 23:11 | 14.10560 | 71.33844 | 32818 ft | 516 kts | 123° |
| 2026-05-03 23:11 | 14.06632 | 71.40037 | 32816 ft | 516 kts | 123° |
| 2026-05-03 23:12 | 14.02696 | 71.46238 | 32818 ft | 516 kts | 123° |
| 2026-05-03 23:12 | 13.98775 | 71.52411 | 32822 ft | 516 kts | 123° |
| 2026-05-03 23:13 | 13.94839 | 71.58603 | 32817 ft | 516 kts | 123° |
| 2026-05-03 23:13 | 13.90911 | 71.64776 | 32819 ft | 515 kts | 123° |
| 2026-05-03 23:14 | 13.86978 | 71.70954 | 32822 ft | 515 kts | 123° |
| 2026-05-03 23:14 | 13.83051 | 71.77117 | 32821 ft | 515 kts | 123° |
| 2026-05-03 23:15 | 13.79122 | 71.83280 | 32825 ft | 515 kts | 123° |
| 2026-05-03 23:15 | 13.75197 | 71.89431 | 32822 ft | 515 kts | 123° |
| 2026-05-03 23:16 | 13.71264 | 71.95592 | 32820 ft | 515 kts | 123° |
| 2026-05-03 23:16 | 13.67143 | 72.01597 | 32820 ft | 515 kts | 128° |
| 2026-05-03 23:17 | 13.62668 | 72.07348 | 32819 ft | 515 kts | 129° |
| 2026-05-03 23:17 | 13.58148 | 72.13054 | 32819 ft | 514 kts | 129° |
| 2026-05-03 23:18 | 13.53691 | 72.18673 | 32822 ft | 515 kts | 129° |
| 2026-05-03 23:18 | 13.49157 | 72.24396 | 32819 ft | 515 kts | 129° |
| 2026-05-03 23:19 | 13.44639 | 72.30103 | 32817 ft | 516 kts | 129° |
| 2026-05-03 23:19 | 13.40110 | 72.35821 | 32821 ft | 516 kts | 129° |
| 2026-05-03 23:20 | 13.35583 | 72.41531 | 32821 ft | 516 kts | 129° |
| 2026-05-03 23:20 | 13.31046 | 72.47251 | 32821 ft | 516 kts | 130° |
| 2026-05-03 23:21 | 13.26511 | 72.52964 | 32819 ft | 516 kts | 129° |
| 2026-05-03 23:21 | 13.21979 | 72.58670 | 32818 ft | 517 kts | 130° |
| 2026-05-03 23:22 | 13.15178 | 72.67223 | 32821 ft | 518 kts | 130° |
| 2026-05-03 23:22 | 13.10597 | 72.72982 | 32818 ft | 518 kts | 130° |
| 2026-05-03 23:23 | 13.06065 | 72.78673 | 32818 ft | 518 kts | 130° |
| 2026-05-03 23:23 | 13.01510 | 72.84392 | 32821 ft | 518 kts | 130° |
| 2026-05-03 23:24 | 12.96951 | 72.90111 | 32824 ft | 518 kts | 130° |
| 2026-05-03 23:24 | 12.92386 | 72.95833 | 32817 ft | 518 kts | 130° |
| 2026-05-03 23:25 | 12.87824 | 73.01549 | 32827 ft | 519 kts | 130° |
| 2026-05-03 23:25 | 12.83256 | 73.07268 | 32827 ft | 519 kts | 130° |
| 2026-05-03 23:26 | 12.78686 | 73.12986 | 32823 ft | 519 kts | 130° |
| 2026-05-03 23:26 | 12.74108 | 73.18711 | 32823 ft | 519 kts | 130° |
| 2026-05-03 23:27 | 12.69535 | 73.24425 | 32824 ft | 519 kts | 130° |
| 2026-05-03 23:27 | 12.64962 | 73.30137 | 32825 ft | 519 kts | 130° |
| 2026-05-03 23:28 | 12.60386 | 73.35849 | 32827 ft | 519 kts | 130° |
| 2026-05-03 23:28 | 12.55792 | 73.41579 | 32825 ft | 520 kts | 130° |
| 2026-05-03 23:29 | 12.51195 | 73.47308 | 32829 ft | 521 kts | 130° |
| 2026-05-03 23:29 | 12.46601 | 73.53032 | 32830 ft | 521 kts | 130° |
| 2026-05-03 23:30 | 12.42003 | 73.58757 | 32829 ft | 521 kts | 130° |
| 2026-05-03 23:30 | 12.37426 | 73.64452 | 32830 ft | 521 kts | 130° |
| 2026-05-03 23:31 | 12.32826 | 73.70171 | 32830 ft | 521 kts | 130° |
| 2026-05-03 23:31 | 12.28224 | 73.75892 | 32829 ft | 521 kts | 130° |
| 2026-05-03 23:32 | 12.23620 | 73.81608 | 32828 ft | 520 kts | 130° |
| 2026-05-03 23:32 | 12.19013 | 73.87327 | 32830 ft | 520 kts | 130° |
| 2026-05-03 23:33 | 12.14413 | 73.93034 | 32832 ft | 520 kts | 130° |
| 2026-05-03 23:33 | 12.09814 | 73.98736 | 32830 ft | 520 kts | 130° |
| 2026-05-03 23:34 | 12.05209 | 74.04441 | 32830 ft | 521 kts | 130° |
| 2026-05-03 23:34 | 12.00591 | 74.10159 | 32829 ft | 521 kts | 130° |
| 2026-05-03 23:35 | 11.95980 | 74.15866 | 32828 ft | 521 kts | 130° |
| 2026-05-03 23:35 | 11.91371 | 74.21566 | 32830 ft | 519 kts | 130° |
| 2026-05-03 23:36 | 11.86779 | 74.27242 | 32826 ft | 518 kts | 130° |
| 2026-05-03 23:36 | 11.82182 | 74.32922 | 32827 ft | 518 kts | 130° |
| 2026-05-03 23:37 | 11.77620 | 74.38554 | 32829 ft | 519 kts | 130° |
| 2026-05-03 23:37 | 11.73016 | 74.44235 | 32830 ft | 520 kts | 130° |
| 2026-05-03 23:38 | 11.68406 | 74.49920 | 32829 ft | 520 kts | 130° |
| 2026-05-03 23:38 | 11.63787 | 74.55613 | 32830 ft | 520 kts | 130° |
| 2026-05-03 23:39 | 11.59183 | 74.61285 | 32827 ft | 518 kts | 130° |
| 2026-05-03 23:39 | 11.54590 | 74.66939 | 32829 ft | 516 kts | 130° |
| 2026-05-03 23:40 | 11.50761 | 74.71651 | 32829 ft | 516 kts | 130° |
| 2026-05-03 23:40 | 11.46208 | 74.77250 | 32829 ft | 516 kts | 130° |
| 2026-05-03 23:41 | 11.41630 | 74.82876 | 32826 ft | 516 kts | 130° |
| 2026-05-03 23:41 | 11.37052 | 74.88502 | 32826 ft | 516 kts | 130° |
| 2026-05-03 23:42 | 11.32466 | 74.94135 | 32826 ft | 516 kts | 130° |
| 2026-05-03 23:42 | 11.27888 | 74.99751 | 32825 ft | 515 kts | 130° |
| 2026-05-03 23:43 | 11.23306 | 75.05369 | 32828 ft | 516 kts | 130° |
| 2026-05-03 23:43 | 11.18713 | 75.10998 | 32824 ft | 518 kts | 130° |
| 2026-05-03 23:44 | 11.14103 | 75.16645 | 32824 ft | 518 kts | 130° |
| 2026-05-03 23:44 | 11.09489 | 75.22294 | 32823 ft | 519 kts | 130° |
| 2026-05-03 23:45 | 11.04877 | 75.27938 | 32823 ft | 518 kts | 130° |
| 2026-05-03 23:45 | 11.00267 | 75.33577 | 32824 ft | 519 kts | 130° |
| 2026-05-03 23:46 | 10.95643 | 75.39228 | 32824 ft | 519 kts | 130° |
| 2026-05-03 23:46 | 10.91043 | 75.44848 | 32824 ft | 516 kts | 130° |
| 2026-05-03 23:47 | 10.86442 | 75.50466 | 32824 ft | 518 kts | 130° |
| 2026-05-03 23:47 | 10.81835 | 75.56089 | 32823 ft | 517 kts | 130° |
| 2026-05-03 23:48 | 10.77261 | 75.61668 | 32825 ft | 517 kts | 130° |
| 2026-05-03 23:48 | 10.72643 | 75.67298 | 32826 ft | 518 kts | 130° |
| 2026-05-03 23:49 | 10.68035 | 75.72913 | 32822 ft | 517 kts | 130° |
| 2026-05-03 23:49 | 10.63428 | 75.78524 | 32820 ft | 517 kts | 130° |
| 2026-05-03 23:50 | 10.58820 | 75.84134 | 32823 ft | 516 kts | 130° |
| 2026-05-03 23:50 | 10.54228 | 75.89721 | 32823 ft | 514 kts | 130° |
| 2026-05-03 23:51 | 10.49634 | 75.95306 | 32826 ft | 515 kts | 130° |
| 2026-05-03 23:51 | 10.45043 | 76.00885 | 32826 ft | 515 kts | 130° |
| 2026-05-03 23:52 | 10.40451 | 76.06464 | 32826 ft | 515 kts | 131° |
| 2026-05-03 23:52 | 10.35854 | 76.12045 | 32829 ft | 515 kts | 130° |
| 2026-05-03 23:53 | 10.31261 | 76.17619 | 32830 ft | 514 kts | 131° |
| 2026-05-03 23:53 | 10.26669 | 76.23188 | 32829 ft | 514 kts | 131° |
| 2026-05-03 23:54 | 10.22079 | 76.28752 | 32829 ft | 513 kts | 131° |
| 2026-05-03 23:54 | 10.17500 | 76.34302 | 32830 ft | 513 kts | 131° |
| 2026-05-03 23:55 | 10.12924 | 76.39847 | 32829 ft | 513 kts | 131° |
| 2026-05-03 23:55 | 10.08330 | 76.45378 | 32829 ft | 513 kts | 131° |
| 2026-05-03 23:56 | 10.03721 | 76.50911 | 32833 ft | 513 kts | 131° |
| 2026-05-03 23:56 | 9.99125 | 76.56432 | 32836 ft | 512 kts | 131° |
| 2026-05-03 23:57 | 9.94536 | 76.61949 | 32839 ft | 512 kts | 131° |
| 2026-05-03 23:57 | 9.89943 | 76.67467 | 32856 ft | 512 kts | 131° |
| 2026-05-03 23:58 | 9.85338 | 76.72998 | 32851 ft | 513 kts | 131° |
| 2026-05-03 23:58 | 9.80736 | 76.78522 | 32851 ft | 513 kts | 131° |
| 2026-05-03 23:59 | 9.76139 | 76.84039 | 32872 ft | 513 kts | 131° |
| 2026-05-03 23:59 | 9.71536 | 76.89560 | 32863 ft | 513 kts | 131° |
| 2026-05-04 00:00 | 9.66967 | 76.95036 | 32883 ft | 512 kts | 131° |
| 2026-05-04 00:00 | 9.62365 | 77.00550 | 32884 ft | 512 kts | 131° |
| 2026-05-04 00:01 | 9.57767 | 77.06056 | 32873 ft | 512 kts | 131° |
| 2026-05-04 00:01 | 9.53169 | 77.11560 | 32881 ft | 511 kts | 131° |
| 2026-05-04 00:02 | 9.48578 | 77.17052 | 32881 ft | 511 kts | 131° |
| 2026-05-04 00:02 | 9.43977 | 77.22555 | 32865 ft | 511 kts | 131° |
| 2026-05-04 00:03 | 9.39385 | 77.28045 | 32856 ft | 511 kts | 131° |
| 2026-05-04 00:03 | 9.34792 | 77.33533 | 32857 ft | 511 kts | 131° |
| 2026-05-04 00:04 | 9.30197 | 77.39020 | 32826 ft | 511 kts | 131° |
| 2026-05-04 00:04 | 9.25603 | 77.44504 | 32826 ft | 511 kts | 131° |
| 2026-05-04 00:05 | 9.21011 | 77.49985 | 32826 ft | 511 kts | 131° |
| 2026-05-04 00:05 | 9.16406 | 77.55479 | 32802 ft | 511 kts | 131° |
| 2026-05-04 00:06 | 9.11804 | 77.60965 | 32802 ft | 511 kts | 131° |
| 2026-05-04 00:06 | 9.07223 | 77.66424 | 32801 ft | 507 kts | 131° |
| 2026-05-04 00:07 | 9.02659 | 77.71858 | 32799 ft | 506 kts | 131° |
| 2026-05-04 00:07 | 8.98100 | 77.77286 | 32798 ft | 506 kts | 131° |
| 2026-05-04 00:08 | 8.93569 | 77.82677 | 32801 ft | 506 kts | 131° |
| 2026-05-04 00:08 | 8.89006 | 77.88105 | 32801 ft | 506 kts | 131° |
| 2026-05-04 00:09 | 8.84441 | 77.93535 | 32804 ft | 507 kts | 131° |
| 2026-05-04 00:09 | 8.79876 | 77.98959 | 32804 ft | 506 kts | 131° |
| 2026-05-04 00:10 | 8.75313 | 78.04381 | 32807 ft | 506 kts | 131° |
| 2026-05-04 00:10 | 8.70756 | 78.09792 | 32807 ft | 506 kts | 131° |
| 2026-05-04 00:11 | 8.66200 | 78.15202 | 32804 ft | 506 kts | 131° |
| 2026-05-04 00:11 | 8.61635 | 78.20618 | 32804 ft | 506 kts | 131° |
| 2026-05-04 00:12 | 8.57074 | 78.26029 | 32812 ft | 506 kts | 131° |
| 2026-05-04 00:12 | 8.52516 | 78.31434 | 32812 ft | 506 kts | 131° |
| 2026-05-04 00:13 | 8.47953 | 78.36843 | 32812 ft | 506 kts | 132° |
| 2026-05-04 00:13 | 8.43386 | 78.42254 | 32818 ft | 505 kts | 132° |
| 2026-05-04 00:14 | 8.38828 | 78.47651 | 32818 ft | 505 kts | 132° |
| 2026-05-04 00:14 | 8.34263 | 78.53054 | 32818 ft | 506 kts | 132° |
| 2026-05-04 00:15 | 8.29728 | 78.58421 | 32821 ft | 505 kts | 132° |
| 2026-05-04 00:15 | 8.25126 | 78.63791 | 32821 ft | 505 kts | 133° |
| 2026-05-04 00:16 | 8.20409 | 78.69053 | 32822 ft | 505 kts | 133° |
| 2026-05-04 00:16 | 8.15688 | 78.74302 | 32827 ft | 504 kts | 134° |
| 2026-05-04 00:17 | 8.10994 | 78.79561 | 32825 ft | 504 kts | 133° |
| 2026-05-04 00:17 | 8.06308 | 78.84827 | 32832 ft | 505 kts | 133° |
| 2026-05-04 00:18 | 8.01626 | 78.90091 | 32834 ft | 503 kts | 133° |
| 2026-05-04 00:18 | 7.96942 | 78.95354 | 32834 ft | 504 kts | 133° |
| 2026-05-04 00:19 | 7.92257 | 79.00613 | 32835 ft | 505 kts | 133° |
| 2026-05-04 00:19 | 7.87568 | 79.05875 | 32840 ft | 504 kts | 134° |
| 2026-05-04 00:20 | 7.82884 | 79.11128 | 32840 ft | 504 kts | 133° |
| 2026-05-04 00:20 | 7.78189 | 79.16393 | 32834 ft | 506 kts | 133° |
| 2026-05-04 00:21 | 7.73510 | 79.21639 | 32838 ft | 505 kts | 133° |
| 2026-05-04 00:21 | 7.68823 | 79.26911 | 32837 ft | 505 kts | 133° |
| 2026-05-04 00:22 | 7.64142 | 79.32248 | 32837 ft | 506 kts | 132° |
| 2026-05-04 00:22 | 7.59487 | 79.37565 | 32835 ft | 506 kts | 133° |
| 2026-05-04 00:23 | 7.54842 | 79.42860 | 32834 ft | 505 kts | 132° |
| 2026-05-04 00:23 | 7.50213 | 79.48127 | 32835 ft | 505 kts | 132° |
| 2026-05-04 00:24 | 7.45551 | 79.53430 | 32839 ft | 507 kts | 132° |
| 2026-05-04 00:24 | 7.40856 | 79.58769 | 32837 ft | 509 kts | 132° |
| 2026-05-04 00:25 | 7.36157 | 79.64111 | 32837 ft | 509 kts | 132° |
| 2026-05-04 00:25 | 7.31458 | 79.69451 | 32833 ft | 509 kts | 132° |
| 2026-05-04 00:26 | 7.26759 | 79.74789 | 32831 ft | 509 kts | 133° |
| 2026-05-04 00:26 | 7.22063 | 79.80122 | 32829 ft | 509 kts | 132° |
| 2026-05-04 00:27 | 7.17377 | 79.85442 | 32831 ft | 507 kts | 132° |
| 2026-05-04 00:27 | 7.12707 | 79.90759 | 32831 ft | 506 kts | 132° |
| 2026-05-04 00:28 | 7.08047 | 79.96076 | 32833 ft | 508 kts | 132° |
| 2026-05-04 00:28 | 7.04152 | 80.00517 | 32834 ft | 509 kts | 131° |
| 2026-05-04 00:29 | 6.99461 | 80.05863 | 32842 ft | 510 kts | 132° |
| 2026-05-04 00:29 | 6.94770 | 80.11208 | 32836 ft | 510 kts | 132° |
| 2026-05-04 00:30 | 6.90076 | 80.16555 | 32846 ft | 510 kts | 132° |
| 2026-05-04 00:30 | 6.85400 | 80.21879 | 32864 ft | 505 kts | 132° |
| 2026-05-04 00:31 | 6.80760 | 80.27161 | 32865 ft | 503 kts | 132° |
| 2026-05-04 00:31 | 6.76127 | 80.32432 | 32886 ft | 503 kts | 132° |
| 2026-05-04 00:32 | 6.71480 | 80.37718 | 32889 ft | 505 kts | 132° |
| 2026-05-04 00:32 | 6.66819 | 80.43019 | 32887 ft | 507 kts | 132° |
| 2026-05-04 00:33 | 6.59814 | 80.50983 | 32887 ft | 507 kts | 132° |
| 2026-05-04 00:34 | 6.55148 | 80.56285 | 32893 ft | 505 kts | 132° |
| 2026-05-04 00:34 | 6.50508 | 80.61555 | 32895 ft | 501 kts | 132° |
| 2026-05-04 00:35 | 6.45908 | 80.66803 | 32895 ft | 501 kts | 131° |
| 2026-05-04 00:35 | 6.41392 | 80.72093 | 32873 ft | 501 kts | 131° |
| 2026-05-04 00:36 | 6.36839 | 80.77456 | 32873 ft | 501 kts | 131° |
| 2026-05-04 00:36 | 6.32297 | 80.82784 | 32871 ft | 503 kts | 131° |
| 2026-05-04 00:37 | 6.27734 | 80.88125 | 32865 ft | 503 kts | 131° |
| 2026-05-04 00:37 | 6.23210 | 80.93415 | 32859 ft | 502 kts | 131° |
| 2026-05-04 00:38 | 6.18668 | 80.98723 | 32860 ft | 500 kts | 131° |
| 2026-05-04 00:38 | 6.14126 | 81.04031 | 32859 ft | 500 kts | 131° |
| 2026-05-04 00:39 | 6.09591 | 81.09332 | 32858 ft | 500 kts | 131° |
| 2026-05-04 00:39 | 6.05032 | 81.14611 | 32861 ft | 500 kts | 131° |
| 2026-05-04 00:40 | 6.00463 | 81.19884 | 32860 ft | 500 kts | 131° |
| 2026-05-04 00:40 | 5.95896 | 81.25162 | 32864 ft | 501 kts | 132° |
| 2026-05-04 00:41 | 5.91328 | 81.30446 | 32863 ft | 499 kts | 131° |
| 2026-05-04 00:41 | 5.86787 | 81.35699 | 32863 ft | 498 kts | 131° |
| 2026-05-04 00:42 | 5.82241 | 81.40957 | 32865 ft | 499 kts | 131° |
| 2026-05-04 00:42 | 5.77690 | 81.46219 | 32864 ft | 497 kts | 131° |
| 2026-05-04 00:43 | 5.73162 | 81.51452 | 32863 ft | 497 kts | 131° |
| 2026-05-04 00:43 | 5.68619 | 81.56701 | 32869 ft | 499 kts | 131° |
| 2026-05-04 00:44 | 5.64070 | 81.61956 | 32865 ft | 498 kts | 132° |
| 2026-05-04 00:44 | 5.59529 | 81.67219 | 32866 ft | 500 kts | 131° |
| 2026-05-04 00:45 | 5.54992 | 81.72493 | 32867 ft | 498 kts | 131° |
| 2026-05-04 00:45 | 5.50473 | 81.77747 | 32868 ft | 497 kts | 131° |
| 2026-05-04 00:46 | 5.45962 | 81.82988 | 32867 ft | 495 kts | 131° |
| 2026-05-04 00:46 | 5.41449 | 81.88232 | 32872 ft | 497 kts | 131° |
| 2026-05-04 00:47 | 5.36920 | 81.93491 | 32872 ft | 498 kts | 131° |
| 2026-05-04 00:47 | 5.32402 | 81.98735 | 32873 ft | 496 kts | 131° |
| 2026-05-04 00:48 | 5.27895 | 82.03965 | 32875 ft | 496 kts | 131° |
| 2026-05-04 00:48 | 5.23387 | 82.09198 | 32876 ft | 501 kts | 131° |
| 2026-05-04 00:49 | 5.18832 | 82.14480 | 32875 ft | 500 kts | 132° |
| 2026-05-04 00:49 | 5.14262 | 82.19779 | 32876 ft | 499 kts | 132° |
| 2026-05-04 00:50 | 5.09716 | 82.25051 | 32878 ft | 501 kts | 131° |
| 2026-05-04 00:50 | 5.05151 | 82.30341 | 32876 ft | 500 kts | 132° |
| 2026-05-04 00:51 | 5.00638 | 82.35572 | 32873 ft | 498 kts | 132° |
| 2026-05-04 00:51 | 4.96096 | 82.40833 | 32871 ft | 500 kts | 131° |
| 2026-05-04 00:52 | 4.91532 | 82.46120 | 32876 ft | 500 kts | 131° |
| 2026-05-04 00:52 | 4.86980 | 82.51392 | 32876 ft | 501 kts | 131° |
| 2026-05-04 00:53 | 4.82410 | 82.56684 | 32879 ft | 502 kts | 131° |
| 2026-05-04 00:53 | 4.77832 | 82.61985 | 32879 ft | 504 kts | 131° |
| 2026-05-04 00:54 | 4.73249 | 82.67289 | 32882 ft | 503 kts | 131° |
| 2026-05-04 00:54 | 4.68671 | 82.72586 | 32880 ft | 502 kts | 131° |
| 2026-05-04 00:55 | 4.64094 | 82.77881 | 32882 ft | 503 kts | 131° |
| 2026-05-04 00:55 | 4.59506 | 82.83187 | 32883 ft | 504 kts | 131° |
| 2026-05-04 00:56 | 4.54906 | 82.88506 | 32881 ft | 504 kts | 131° |
| 2026-05-04 00:56 | 4.50310 | 82.93819 | 32884 ft | 506 kts | 131° |
| 2026-05-04 00:57 | 4.45693 | 82.99156 | 32884 ft | 507 kts | 131° |
| 2026-05-04 00:57 | 4.41075 | 83.04493 | 32879 ft | 507 kts | 131° |
| 2026-05-04 00:58 | 4.36461 | 83.09824 | 32879 ft | 507 kts | 131° |
| 2026-05-04 00:58 | 4.31867 | 83.15131 | 32882 ft | 507 kts | 131° |
| 2026-05-04 00:59 | 4.27207 | 83.20512 | 32878 ft | 509 kts | 131° |
| 2026-05-04 00:59 | 4.22590 | 83.25844 | 32883 ft | 510 kts | 131° |
| 2026-05-04 01:00 | 4.17945 | 83.31205 | 32883 ft | 510 kts | 131° |
| 2026-05-04 01:00 | 4.13299 | 83.36568 | 32884 ft | 510 kts | 131° |
| 2026-05-04 01:01 | 4.08647 | 83.41936 | 32885 ft | 510 kts | 131° |
| 2026-05-04 01:01 | 4.04002 | 83.47296 | 32882 ft | 510 kts | 131° |
| 2026-05-04 01:02 | 3.99360 | 83.52651 | 32882 ft | 510 kts | 131° |
| 2026-05-04 01:02 | 3.94705 | 83.58019 | 32880 ft | 512 kts | 131° |
| 2026-05-04 01:03 | 3.90022 | 83.63419 | 32879 ft | 513 kts | 131° |
| 2026-05-04 01:03 | 3.85342 | 83.68814 | 32878 ft | 513 kts | 131° |
| 2026-05-04 01:04 | 3.80668 | 83.74202 | 32882 ft | 513 kts | 131° |
| 2026-05-04 01:04 | 3.75983 | 83.79601 | 32881 ft | 513 kts | 131° |
| 2026-05-04 01:05 | 3.71296 | 83.85002 | 32881 ft | 514 kts | 131° |
| 2026-05-04 01:05 | 3.66608 | 83.90402 | 32881 ft | 513 kts | 131° |
| 2026-05-04 01:06 | 3.61931 | 83.95790 | 32881 ft | 513 kts | 130° |
| 2026-05-04 01:06 | 3.57242 | 84.01192 | 32881 ft | 514 kts | 130° |
| 2026-05-04 01:07 | 3.52557 | 84.06587 | 32880 ft | 513 kts | 130° |
| 2026-05-04 01:07 | 3.47811 | 84.11916 | 32881 ft | 513 kts | 131° |
| 2026-05-04 01:08 | 3.43005 | 84.17199 | 32878 ft | 513 kts | 131° |
| 2026-05-04 01:08 | 3.38197 | 84.22500 | 32880 ft | 514 kts | 131° |
| 2026-05-04 01:09 | 3.33401 | 84.27813 | 32879 ft | 514 kts | 131° |
| 2026-05-04 01:09 | 3.28608 | 84.33129 | 32879 ft | 516 kts | 131° |
| 2026-05-04 01:10 | 3.23794 | 84.38468 | 32879 ft | 518 kts | 131° |
| 2026-05-04 01:10 | 3.18961 | 84.43826 | 32879 ft | 518 kts | 131° |
| 2026-05-04 01:11 | 3.14141 | 84.49170 | 32876 ft | 517 kts | 131° |
| 2026-05-04 01:11 | 3.09326 | 84.54506 | 32874 ft | 517 kts | 131° |
| 2026-05-04 01:12 | 3.04533 | 84.59817 | 32876 ft | 518 kts | 131° |
| 2026-05-04 01:12 | 2.99701 | 84.65171 | 32875 ft | 519 kts | 131° |
| 2026-05-04 01:13 | 2.94835 | 84.70562 | 32870 ft | 518 kts | 131° |
| 2026-05-04 01:13 | 2.90027 | 84.75886 | 32874 ft | 519 kts | 131° |
| 2026-05-04 01:14 | 2.85187 | 84.81246 | 32875 ft | 520 kts | 131° |
| 2026-05-04 01:14 | 2.80338 | 84.86616 | 32876 ft | 520 kts | 131° |
| 2026-05-04 01:15 | 2.76278 | 84.91111 | 32879 ft | 518 kts | 131° |
| 2026-05-04 01:15 | 2.71447 | 84.96458 | 32880 ft | 519 kts | 131° |
| 2026-05-04 01:16 | 2.66601 | 85.01823 | 32880 ft | 521 kts | 131° |
| 2026-05-04 01:16 | 2.61756 | 85.07186 | 32876 ft | 518 kts | 131° |
| 2026-05-04 01:17 | 2.56935 | 85.12519 | 32879 ft | 514 kts | 131° |
| 2026-05-04 01:17 | 2.52176 | 85.17785 | 32879 ft | 514 kts | 131° |
| 2026-05-04 01:18 | 2.47353 | 85.23121 | 32877 ft | 515 kts | 131° |
| 2026-05-04 01:18 | 2.42554 | 85.28430 | 32877 ft | 514 kts | 131° |
| 2026-05-04 01:19 | 2.37782 | 85.33708 | 32880 ft | 514 kts | 131° |
| 2026-05-04 01:19 | 2.32991 | 85.39008 | 32883 ft | 514 kts | 131° |
| 2026-05-04 01:20 | 2.28195 | 85.44312 | 32882 ft | 515 kts | 131° |
| 2026-05-04 01:20 | 2.23394 | 85.49619 | 32876 ft | 515 kts | 131° |
| 2026-05-04 01:21 | 2.18585 | 85.54936 | 32879 ft | 514 kts | 132° |
| 2026-05-04 01:21 | 2.13791 | 85.60236 | 32879 ft | 514 kts | 131° |
| 2026-05-04 01:22 | 2.08988 | 85.65546 | 32879 ft | 515 kts | 131° |
| 2026-05-04 01:22 | 2.04180 | 85.70859 | 32876 ft | 515 kts | 131° |
| 2026-05-04 01:23 | 1.99378 | 85.76167 | 32875 ft | 514 kts | 132° |
| 2026-05-04 01:23 | 1.94574 | 85.81476 | 32876 ft | 514 kts | 131° |
| 2026-05-04 01:24 | 1.89774 | 85.86779 | 32879 ft | 515 kts | 131° |
| 2026-05-04 01:24 | 1.84961 | 85.92097 | 32882 ft | 515 kts | 131° |
| 2026-05-04 01:25 | 1.80153 | 85.97409 | 32881 ft | 515 kts | 131° |
| 2026-05-04 01:25 | 1.75354 | 86.02711 | 32882 ft | 515 kts | 131° |
| 2026-05-04 01:26 | 1.70543 | 86.08026 | 32882 ft | 515 kts | 131° |
| 2026-05-04 01:26 | 1.65734 | 86.13338 | 32879 ft | 515 kts | 131° |
| 2026-05-04 01:27 | 1.60922 | 86.18641 | 32882 ft | 515 kts | 132° |
| 2026-05-04 01:27 | 1.56009 | 86.23805 | 32882 ft | 511 kts | 133° |
| 2026-05-04 01:28 | 1.51093 | 86.28884 | 32883 ft | 511 kts | 133° |
| 2026-05-04 01:28 | 1.46135 | 86.34042 | 32886 ft | 512 kts | 133° |
| 2026-05-04 01:29 | 1.41222 | 86.39180 | 32886 ft | 511 kts | 133° |
| 2026-05-04 01:29 | 1.36342 | 86.44293 | 32883 ft | 511 kts | 133° |
| 2026-05-04 01:30 | 1.31438 | 86.49427 | 32885 ft | 511 kts | 133° |
| 2026-05-04 01:30 | 1.26532 | 86.54564 | 32885 ft | 511 kts | 133° |
| 2026-05-04 01:31 | 1.21624 | 86.59702 | 32890 ft | 511 kts | 133° |
| 2026-05-04 01:31 | 1.16716 | 86.64838 | 32884 ft | 510 kts | 133° |
| 2026-05-04 01:32 | 1.11817 | 86.69965 | 32889 ft | 510 kts | 133° |
| 2026-05-04 01:32 | 1.06912 | 86.75098 | 32886 ft | 511 kts | 133° |
| 2026-05-04 01:33 | 1.02003 | 86.80236 | 32887 ft | 511 kts | 133° |
| 2026-05-04 01:33 | 0.97083 | 86.85385 | 32887 ft | 512 kts | 133° |
| 2026-05-04 01:34 | 0.92173 | 86.90524 | 32886 ft | 511 kts | 133° |
| 2026-05-04 01:34 | 0.87265 | 86.95660 | 32889 ft | 511 kts | 133° |
| 2026-05-04 01:35 | 0.82376 | 87.00774 | 32890 ft | 508 kts | 133° |
| 2026-05-04 01:35 | 0.77493 | 87.05884 | 32890 ft | 507 kts | 133° |
| 2026-05-04 01:36 | 0.72616 | 87.10987 | 32890 ft | 509 kts | 133° |
| 2026-05-04 01:36 | 0.67719 | 87.16112 | 32890 ft | 510 kts | 133° |
| 2026-05-04 01:37 | 0.62817 | 87.21240 | 32891 ft | 510 kts | 133° |
| 2026-05-04 01:37 | 0.57918 | 87.26364 | 32896 ft | 510 kts | 132° |
| 2026-05-04 01:38 | 0.53018 | 87.31491 | 32893 ft | 510 kts | 132° |
| 2026-05-04 01:38 | 0.48145 | 87.36589 | 32893 ft | 509 kts | 132° |
| 2026-05-04 01:39 | 0.43229 | 87.41739 | 32893 ft | 509 kts | 132° |
| 2026-05-04 01:39 | 0.38340 | 87.46855 | 32893 ft | 509 kts | 132° |
| 2026-05-04 01:40 | 0.33476 | 87.51938 | 32895 ft | 509 kts | 132° |
| 2026-05-04 01:40 | 0.28554 | 87.57086 | 32895 ft | 509 kts | 132° |
| 2026-05-04 01:41 | 0.23665 | 87.62202 | 32893 ft | 509 kts | 132° |
| 2026-05-04 01:41 | 0.18803 | 87.67288 | 32896 ft | 509 kts | 132° |
| 2026-05-04 01:42 | 0.13884 | 87.72435 | 32896 ft | 509 kts | 132° |
| 2026-05-04 01:42 | 0.08975 | 87.77571 | 32898 ft | 512 kts | 132° |
| 2026-05-04 01:43 | 0.04049 | 87.82724 | 32899 ft | 513 kts | 132° |
| 2026-05-04 01:43 | -0.00881 | 87.87882 | 32894 ft | 513 kts | 132° |
| 2026-05-04 01:44 | -0.05784 | 87.93011 | 32899 ft | 514 kts | 132° |
| 2026-05-04 01:44 | -0.10756 | 87.98214 | 32895 ft | 515 kts | 132° |
| 2026-05-04 01:45 | -0.15698 | 88.03384 | 32904 ft | 515 kts | 132° |
| 2026-05-04 01:45 | -0.23110 | 88.11139 | 32908 ft | 513 kts | 133° |
| 2026-05-04 01:46 | -0.28012 | 88.16266 | 32904 ft | 509 kts | 133° |
| 2026-05-04 01:46 | -0.32866 | 88.21345 | 32902 ft | 508 kts | 133° |
| 2026-05-04 01:47 | -0.37745 | 88.26450 | 32904 ft | 508 kts | 133° |
| 2026-05-04 01:47 | -0.42635 | 88.31566 | 32904 ft | 511 kts | 132° |
| 2026-05-04 01:48 | -0.47581 | 88.36743 | 32900 ft | 512 kts | 132° |
| 2026-05-04 01:48 | -0.52469 | 88.41858 | 32902 ft | 512 kts | 132° |
| 2026-05-04 01:49 | -0.57398 | 88.47016 | 32900 ft | 512 kts | 132° |
| 2026-05-04 01:49 | -0.62308 | 88.52153 | 32907 ft | 510 kts | 132° |
| 2026-05-04 01:50 | -0.67200 | 88.57271 | 32904 ft | 509 kts | 132° |
| 2026-05-04 01:50 | -0.72097 | 88.62396 | 32904 ft | 509 kts | 132° |
| 2026-05-04 01:51 | -0.76987 | 88.67514 | 32904 ft | 509 kts | 132° |
| 2026-05-04 01:51 | -0.81870 | 88.72624 | 32904 ft | 508 kts | 132° |
| 2026-05-04 01:52 | -0.86741 | 88.77722 | 32906 ft | 507 kts | 132° |
| 2026-05-04 01:52 | -0.91614 | 88.82822 | 32906 ft | 507 kts | 132° |
| 2026-05-04 01:53 | -0.96493 | 88.87929 | 32904 ft | 507 kts | 132° |
| 2026-05-04 01:53 | -1.01357 | 88.93020 | 32906 ft | 506 kts | 132° |
| 2026-05-04 01:54 | -1.06216 | 88.98105 | 32909 ft | 506 kts | 132° |
| 2026-05-04 01:54 | -1.11089 | 89.03196 | 32906 ft | 506 kts | 132° |
| 2026-05-04 01:55 | -1.15948 | 89.08272 | 32906 ft | 506 kts | 132° |
| 2026-05-04 01:55 | -1.20823 | 89.13368 | 32909 ft | 507 kts | 132° |
| 2026-05-04 01:56 | -1.25696 | 89.18461 | 32906 ft | 507 kts | 132° |
| 2026-05-04 01:56 | -1.30578 | 89.23565 | 32907 ft | 507 kts | 132° |
| 2026-05-04 01:57 | -1.35415 | 89.28622 | 32909 ft | 507 kts | 132° |
| 2026-05-04 01:57 | -1.40283 | 89.33712 | 32909 ft | 507 kts | 132° |
| 2026-05-04 01:58 | -1.44365 | 89.37980 | 32909 ft | 507 kts | 132° |
| 2026-05-04 01:58 | -1.50026 | 89.43899 | 32912 ft | 507 kts | 132° |
| 2026-05-04 01:59 | -1.54102 | 89.48162 | 32912 ft | 507 kts | 132° |
| 2026-05-04 01:59 | -1.59770 | 89.54089 | 32912 ft | 508 kts | 132° |
| 2026-05-04 02:00 | -1.64647 | 89.59189 | 32912 ft | 508 kts | 132° |
| 2026-05-04 02:00 | -1.68735 | 89.63465 | 32915 ft | 508 kts | 132° |
| 2026-05-04 02:01 | -1.73611 | 89.68566 | 32910 ft | 508 kts | 132° |
| 2026-05-04 02:01 | -1.78462 | 89.73641 | 32917 ft | 507 kts | 132° |
| 2026-05-04 02:02 | -1.83336 | 89.78741 | 32916 ft | 507 kts | 132° |
| 2026-05-04 02:02 | -1.88209 | 89.83839 | 32918 ft | 507 kts | 132° |
| 2026-05-04 02:03 | -1.93090 | 89.88947 | 32921 ft | 507 kts | 132° |
| 2026-05-04 02:03 | -1.97967 | 89.94050 | 32917 ft | 507 kts | 132° |
| 2026-05-04 02:04 | -2.02817 | 89.99168 | 32920 ft | 507 kts | 131° |
| 2026-05-04 02:04 | -2.07591 | 90.04369 | 32918 ft | 507 kts | 131° |
| 2026-05-04 02:05 | -2.12348 | 90.09575 | 32921 ft | 507 kts | 131° |
| 2026-05-04 02:05 | -2.17119 | 90.14771 | 32921 ft | 507 kts | 131° |
| 2026-05-04 02:06 | -2.21904 | 90.19970 | 32927 ft | 507 kts | 131° |
| 2026-05-04 02:06 | -2.26679 | 90.25156 | 32922 ft | 507 kts | 131° |
| 2026-05-04 02:07 | -2.31456 | 90.30345 | 32924 ft | 508 kts | 131° |
| 2026-05-04 02:07 | -2.36250 | 90.35555 | 32924 ft | 510 kts | 131° |
| 2026-05-04 02:08 | -2.41060 | 90.40781 | 32924 ft | 510 kts | 131° |
| 2026-05-04 02:08 | -2.45824 | 90.45960 | 32927 ft | 509 kts | 131° |
| 2026-05-04 02:09 | -2.50626 | 90.51180 | 32929 ft | 509 kts | 131° |
| 2026-05-04 02:09 | -2.55421 | 90.56393 | 32927 ft | 509 kts | 131° |
| 2026-05-04 02:10 | -2.60215 | 90.61606 | 32927 ft | 509 kts | 131° |
| 2026-05-04 02:10 | -2.65010 | 90.66819 | 32928 ft | 509 kts | 131° |
| 2026-05-04 02:11 | -2.69810 | 90.72040 | 32929 ft | 509 kts | 131° |
| 2026-05-04 02:11 | -2.74602 | 90.77253 | 32927 ft | 509 kts | 131° |
| 2026-05-04 02:12 | -2.79398 | 90.82469 | 32928 ft | 510 kts | 131° |
| 2026-05-04 02:12 | -2.84195 | 90.87688 | 32929 ft | 510 kts | 131° |
| 2026-05-04 02:13 | -2.88990 | 90.92906 | 32930 ft | 510 kts | 131° |
| 2026-05-04 02:13 | -2.93793 | 90.98132 | 32928 ft | 510 kts | 131° |
| 2026-05-04 02:14 | -2.98589 | 91.03352 | 32927 ft | 510 kts | 131° |
| 2026-05-04 02:14 | -3.03385 | 91.08573 | 32927 ft | 510 kts | 131° |
| 2026-05-04 02:15 | -3.08191 | 91.13805 | 32929 ft | 510 kts | 131° |
| 2026-05-04 02:15 | -3.12999 | 91.19041 | 32929 ft | 511 kts | 131° |
| 2026-05-04 02:16 | -3.17808 | 91.24278 | 32929 ft | 511 kts | 131° |
| 2026-05-04 02:16 | -3.22620 | 91.29519 | 32930 ft | 511 kts | 131° |
| 2026-05-04 02:17 | -3.27439 | 91.34768 | 32927 ft | 511 kts | 131° |
| 2026-05-04 02:17 | -3.32250 | 91.40010 | 32924 ft | 511 kts | 131° |
| 2026-05-04 02:18 | -3.37058 | 91.45249 | 32932 ft | 511 kts | 131° |
| 2026-05-04 02:18 | -3.41868 | 91.50491 | 32931 ft | 511 kts | 131° |
| 2026-05-04 02:19 | -3.46683 | 91.55740 | 32927 ft | 511 kts | 131° |
| 2026-05-04 02:19 | -3.51483 | 91.60973 | 32930 ft | 510 kts | 131° |
| 2026-05-04 02:20 | -3.56283 | 91.66207 | 32930 ft | 510 kts | 131° |
| 2026-05-04 02:20 | -3.61083 | 91.71441 | 32930 ft | 510 kts | 131° |
| 2026-05-04 02:21 | -3.65888 | 91.76683 | 32927 ft | 510 kts | 131° |
| 2026-05-04 02:21 | -3.70654 | 91.81882 | 32928 ft | 510 kts | 131° |
| 2026-05-04 02:22 | -3.75452 | 91.87117 | 32929 ft | 510 kts | 131° |
| 2026-05-04 02:22 | -3.80248 | 91.92351 | 32933 ft | 510 kts | 131° |
| 2026-05-04 02:23 | -3.85067 | 91.97610 | 32929 ft | 509 kts | 131° |
| 2026-05-04 02:23 | -3.89828 | 92.02808 | 32929 ft | 509 kts | 131° |
| 2026-05-04 02:24 | -3.94614 | 92.08035 | 32931 ft | 509 kts | 131° |
| 2026-05-04 02:24 | -3.99403 | 92.13265 | 32929 ft | 509 kts | 131° |
| 2026-05-04 02:25 | -4.04188 | 92.18492 | 32929 ft | 509 kts | 131° |
| 2026-05-04 02:25 | -4.08983 | 92.23729 | 32933 ft | 509 kts | 131° |
| 2026-05-04 02:26 | -4.13768 | 92.28958 | 32932 ft | 509 kts | 131° |
| 2026-05-04 02:26 | -4.18558 | 92.34194 | 32932 ft | 510 kts | 131° |
| 2026-05-04 02:27 | -4.23359 | 92.39442 | 32932 ft | 512 kts | 131° |
| 2026-05-04 02:27 | -4.28176 | 92.44709 | 32932 ft | 512 kts | 131° |
| 2026-05-04 02:28 | -4.32988 | 92.49971 | 32932 ft | 512 kts | 131° |
| 2026-05-04 02:28 | -4.37797 | 92.55234 | 32935 ft | 512 kts | 131° |
| 2026-05-04 02:29 | -4.42506 | 92.60584 | 32936 ft | 512 kts | 130° |
| 2026-05-04 02:29 | -4.47159 | 92.65984 | 32932 ft | 512 kts | 129° |
| 2026-05-04 02:30 | -4.51832 | 92.71382 | 32939 ft | 512 kts | 129° |
| 2026-05-04 02:30 | -4.56510 | 92.76759 | 32935 ft | 512 kts | 130° |
| 2026-05-04 02:31 | -4.61204 | 92.82146 | 32935 ft | 513 kts | 130° |
| 2026-05-04 02:31 | -4.65900 | 92.87538 | 32935 ft | 514 kts | 130° |
| 2026-05-04 02:32 | -4.70597 | 92.92931 | 32938 ft | 514 kts | 130° |
| 2026-05-04 02:32 | -4.75299 | 92.98333 | 32938 ft | 514 kts | 130° |
| 2026-05-04 02:33 | -4.79994 | 93.03728 | 32934 ft | 514 kts | 130° |
| 2026-05-04 02:33 | -4.84658 | 93.09087 | 32941 ft | 512 kts | 130° |
| 2026-05-04 02:34 | -4.89332 | 93.14460 | 32935 ft | 511 kts | 130° |
| 2026-05-04 02:34 | -4.94001 | 93.19830 | 32935 ft | 511 kts | 130° |
| 2026-05-04 02:35 | -4.98684 | 93.25216 | 32938 ft | 513 kts | 130° |
| 2026-05-04 02:35 | -5.03374 | 93.30613 | 32938 ft | 514 kts | 130° |
| 2026-05-04 02:36 | -5.08067 | 93.36013 | 32935 ft | 513 kts | 130° |
| 2026-05-04 02:36 | -5.12756 | 93.41409 | 32935 ft | 513 kts | 130° |
| 2026-05-04 02:37 | -5.17454 | 93.46818 | 32935 ft | 513 kts | 130° |
| 2026-05-04 02:37 | -5.22143 | 93.52217 | 32937 ft | 514 kts | 130° |
| 2026-05-04 02:38 | -5.26832 | 93.57619 | 32936 ft | 514 kts | 130° |
| 2026-05-04 02:38 | -5.31523 | 93.63024 | 32935 ft | 514 kts | 130° |
| 2026-05-04 02:39 | -5.36225 | 93.68442 | 32938 ft | 515 kts | 130° |
| 2026-05-04 02:39 | -5.40931 | 93.73866 | 32936 ft | 516 kts | 130° |
| 2026-05-04 02:40 | -5.45638 | 93.79294 | 32934 ft | 515 kts | 130° |
| 2026-05-04 02:40 | -5.50343 | 93.84720 | 32938 ft | 515 kts | 130° |
| 2026-05-04 02:41 | -5.55019 | 93.90114 | 32938 ft | 515 kts | 130° |
| 2026-05-04 02:41 | -5.59720 | 93.95539 | 32936 ft | 515 kts | 130° |
| 2026-05-04 02:42 | -5.64454 | 94.01003 | 32941 ft | 515 kts | 130° |
| 2026-05-04 02:42 | -5.69162 | 94.06438 | 32938 ft | 515 kts | 130° |
| 2026-05-04 02:43 | -5.73859 | 94.11862 | 32938 ft | 516 kts | 129° |
| 2026-05-04 02:43 | -5.78543 | 94.17274 | 32938 ft | 516 kts | 129° |
| 2026-05-04 02:44 | -5.83249 | 94.22711 | 32940 ft | 515 kts | 130° |
| 2026-05-04 02:44 | -5.87942 | 94.28135 | 32943 ft | 514 kts | 130° |
| 2026-05-04 02:45 | -5.92631 | 94.33556 | 32940 ft | 514 kts | 130° |
| 2026-05-04 02:45 | -5.97327 | 94.38987 | 32940 ft | 514 kts | 130° |
| 2026-05-04 02:46 | -6.02015 | 94.44410 | 32942 ft | 514 kts | 130° |
| 2026-05-04 02:46 | -6.05915 | 94.48923 | 32942 ft | 514 kts | 130° |
| 2026-05-04 02:47 | -6.10593 | 94.54337 | 32942 ft | 511 kts | 130° |
| 2026-05-04 02:47 | -6.15238 | 94.59713 | 32937 ft | 509 kts | 130° |
| 2026-05-04 02:48 | -6.19893 | 94.65105 | 32940 ft | 511 kts | 130° |
| 2026-05-04 02:48 | -6.24548 | 94.70498 | 32944 ft | 511 kts | 130° |
| 2026-05-04 02:49 | -6.29202 | 94.75890 | 32945 ft | 511 kts | 130° |
| 2026-05-04 02:49 | -6.33855 | 94.81283 | 32940 ft | 511 kts | 130° |
| 2026-05-04 02:50 | -6.38506 | 94.86676 | 32940 ft | 511 kts | 130° |
| 2026-05-04 02:50 | -6.43166 | 94.92079 | 32944 ft | 511 kts | 130° |
| 2026-05-04 02:51 | -6.47820 | 94.97479 | 32940 ft | 513 kts | 130° |
| 2026-05-04 02:51 | -6.52528 | 95.02892 | 32944 ft | 515 kts | 131° |
| 2026-05-04 02:52 | -6.57425 | 95.08153 | 32962 ft | 514 kts | 133° |
| 2026-05-04 02:52 | -6.62355 | 95.13384 | 32944 ft | 515 kts | 133° |
| 2026-05-04 02:53 | -6.67253 | 95.18637 | 32950 ft | 514 kts | 132° |
| 2026-05-04 02:53 | -6.72125 | 95.23898 | 32943 ft | 514 kts | 132° |
| 2026-05-04 02:54 | -6.76990 | 95.29161 | 32945 ft | 514 kts | 132° |
| 2026-05-04 02:54 | -6.81874 | 95.34444 | 32948 ft | 515 kts | 132° |
| 2026-05-04 02:55 | -6.89189 | 95.42358 | 32944 ft | 516 kts | 132° |
| 2026-05-04 02:56 | -6.94087 | 95.47658 | 32946 ft | 517 kts | 132° |
| 2026-05-04 02:56 | -6.98981 | 95.52956 | 32945 ft | 517 kts | 132° |
| 2026-05-04 02:57 | -7.03864 | 95.58244 | 32946 ft | 515 kts | 132° |
| 2026-05-04 02:57 | -7.08744 | 95.63530 | 32950 ft | 516 kts | 132° |
| 2026-05-04 02:58 | -7.13601 | 95.68793 | 32951 ft | 515 kts | 132° |
| 2026-05-04 02:58 | -7.18471 | 95.74072 | 32952 ft | 514 kts | 132° |
| 2026-05-04 02:59 | -7.23370 | 95.79384 | 32946 ft | 515 kts | 132° |
| 2026-05-04 02:59 | -7.28231 | 95.84657 | 32950 ft | 517 kts | 132° |
| 2026-05-04 03:00 | -7.33116 | 95.89958 | 32963 ft | 516 kts | 132° |
| 2026-05-04 03:00 | -7.37999 | 95.95258 | 32949 ft | 518 kts | 132° |
| 2026-05-04 03:01 | -7.42896 | 96.00576 | 32947 ft | 517 kts | 132° |
| 2026-05-04 03:01 | -7.47792 | 96.05894 | 32950 ft | 517 kts | 132° |
| 2026-05-04 03:02 | -7.52676 | 96.11199 | 32946 ft | 516 kts | 131° |
| 2026-05-04 03:02 | -7.57554 | 96.16503 | 32964 ft | 517 kts | 132° |
| 2026-05-04 03:03 | -7.62454 | 96.21832 | 32947 ft | 518 kts | 132° |
| 2026-05-04 03:03 | -7.67341 | 96.27148 | 32943 ft | 517 kts | 132° |
| 2026-05-04 03:04 | -7.72221 | 96.32457 | 32945 ft | 516 kts | 132° |
| 2026-05-04 03:04 | -7.77115 | 96.37784 | 32963 ft | 518 kts | 132° |
| 2026-05-04 03:05 | -7.82014 | 96.43120 | 32963 ft | 517 kts | 132° |
| 2026-05-04 03:05 | -7.86900 | 96.48442 | 32960 ft | 517 kts | 131° |
| 2026-05-04 03:06 | -7.91781 | 96.53761 | 32942 ft | 517 kts | 131° |
| 2026-05-04 03:06 | -7.96636 | 96.59056 | 32941 ft | 519 kts | 132° |
| 2026-05-04 03:07 | -8.01536 | 96.64400 | 32960 ft | 519 kts | 132° |
| 2026-05-04 03:07 | -8.06436 | 96.69745 | 32961 ft | 518 kts | 132° |
| 2026-05-04 03:08 | -8.11332 | 96.75089 | 32960 ft | 519 kts | 132° |
| 2026-05-04 03:08 | -8.16230 | 96.80437 | 32943 ft | 518 kts | 132° |
| 2026-05-04 03:09 | -8.21119 | 96.85777 | 32942 ft | 518 kts | 131° |
| 2026-05-04 03:09 | -8.26007 | 96.91117 | 32960 ft | 518 kts | 131° |
| 2026-05-04 03:10 | -8.30895 | 96.96462 | 32962 ft | 520 kts | 131° |
| 2026-05-04 03:10 | -8.35805 | 97.01832 | 32962 ft | 520 kts | 132° |
| 2026-05-04 03:11 | -8.40716 | 97.07204 | 32957 ft | 520 kts | 131° |
| 2026-05-04 03:11 | -8.45626 | 97.12578 | 32942 ft | 521 kts | 131° |
| 2026-05-04 03:12 | -8.50548 | 97.17967 | 32941 ft | 522 kts | 131° |
| 2026-05-04 03:12 | -8.55468 | 97.23356 | 32959 ft | 521 kts | 131° |
| 2026-05-04 03:13 | -8.60373 | 97.28731 | 32960 ft | 519 kts | 131° |
| 2026-05-04 03:13 | -8.65273 | 97.34103 | 32961 ft | 521 kts | 131° |
| 2026-05-04 03:14 | -8.70196 | 97.39502 | 32964 ft | 522 kts | 132° |
| 2026-05-04 03:14 | -8.75080 | 97.44860 | 32963 ft | 521 kts | 132° |
| 2026-05-04 03:15 | -8.79991 | 97.50251 | 32961 ft | 521 kts | 132° |
| 2026-05-04 03:15 | -8.84905 | 97.55646 | 32961 ft | 522 kts | 132° |
| 2026-05-04 03:16 | -8.89830 | 97.61056 | 32943 ft | 522 kts | 131° |
| 2026-05-04 03:16 | -8.94739 | 97.66451 | 32944 ft | 521 kts | 131° |
| 2026-05-04 03:17 | -8.99638 | 97.71838 | 32966 ft | 520 kts | 131° |
| 2026-05-04 03:17 | -9.04542 | 97.77232 | 32964 ft | 522 kts | 131° |
| 2026-05-04 03:18 | -9.09463 | 97.82648 | 32958 ft | 523 kts | 131° |
| 2026-05-04 03:18 | -9.14393 | 97.88075 | 32956 ft | 523 kts | 131° |
| 2026-05-04 03:19 | -9.19313 | 97.93493 | 32957 ft | 523 kts | 132° |
| 2026-05-04 03:19 | -9.24225 | 97.98906 | 32955 ft | 522 kts | 131° |
| 2026-05-04 03:20 | -9.29133 | 98.04316 | 32956 ft | 522 kts | 131° |
| 2026-05-04 03:20 | -9.34048 | 98.09737 | 32961 ft | 521 kts | 131° |
| 2026-05-04 03:21 | -9.38950 | 98.15147 | 32958 ft | 522 kts | 132° |
| 2026-05-04 03:21 | -9.43854 | 98.20560 | 32958 ft | 522 kts | 132° |
| 2026-05-04 03:22 | -9.48762 | 98.25979 | 32958 ft | 522 kts | 131° |
| 2026-05-04 03:22 | -9.53680 | 98.31412 | 32960 ft | 523 kts | 131° |
| 2026-05-04 03:23 | -9.58598 | 98.36849 | 32953 ft | 523 kts | 131° |
| 2026-05-04 03:23 | -9.63509 | 98.42279 | 32954 ft | 522 kts | 131° |
| 2026-05-04 03:24 | -9.68419 | 98.47712 | 32956 ft | 522 kts | 131° |
| 2026-05-04 03:24 | -9.73328 | 98.53146 | 32956 ft | 523 kts | 131° |
| 2026-05-04 03:25 | -9.78250 | 98.58598 | 32958 ft | 525 kts | 131° |
| 2026-05-04 03:25 | -9.83178 | 98.64057 | 32958 ft | 524 kts | 131° |
| 2026-05-04 03:26 | -9.88091 | 98.69503 | 32958 ft | 523 kts | 131° |
| 2026-05-04 03:26 | -9.92968 | 98.74911 | 32958 ft | 522 kts | 131° |
| 2026-05-04 03:27 | -9.97897 | 98.80380 | 32956 ft | 523 kts | 131° |
| 2026-05-04 03:27 | -10.02803 | 98.85828 | 32956 ft | 523 kts | 131° |
| 2026-05-04 03:28 | -10.07703 | 98.91270 | 32959 ft | 521 kts | 131° |
| 2026-05-04 03:28 | -10.12557 | 98.96663 | 32957 ft | 522 kts | 131° |
| 2026-05-04 03:29 | -10.17459 | 99.02112 | 32958 ft | 524 kts | 131° |
| 2026-05-04 03:29 | -10.22363 | 99.07566 | 32958 ft | 522 kts | 131° |
| 2026-05-04 03:30 | -10.27257 | 99.13012 | 32960 ft | 523 kts | 131° |
| 2026-05-04 03:30 | -10.32176 | 99.18490 | 32961 ft | 524 kts | 131° |
| 2026-05-04 03:31 | -10.37077 | 99.23949 | 32959 ft | 522 kts | 131° |
| 2026-05-04 03:31 | -10.41973 | 99.29404 | 32958 ft | 523 kts | 131° |
| 2026-05-04 03:32 | -10.46877 | 99.34874 | 32959 ft | 525 kts | 131° |
| 2026-05-04 03:32 | -10.51799 | 99.40364 | 32960 ft | 526 kts | 131° |
| 2026-05-04 03:33 | -10.56725 | 99.45861 | 32958 ft | 527 kts | 131° |
| 2026-05-04 03:33 | -10.61655 | 99.51367 | 32958 ft | 526 kts | 131° |
| 2026-05-04 03:34 | -10.65747 | 99.55941 | 32957 ft | 524 kts | 131° |
| 2026-05-04 03:34 | -10.70376 | 99.61659 | 32958 ft | 523 kts | 127° |
| 2026-05-04 03:35 | -10.74813 | 99.67539 | 32963 ft | 524 kts | 127° |
| 2026-05-04 03:35 | -10.79276 | 99.73381 | 32960 ft | 523 kts | 127° |
| 2026-05-04 03:36 | -10.83782 | 99.79188 | 32958 ft | 524 kts | 127° |
| 2026-05-04 03:36 | -10.88318 | 99.85008 | 32960 ft | 524 kts | 128° |
| 2026-05-04 03:37 | -10.92853 | 99.90827 | 32961 ft | 526 kts | 128° |
| 2026-05-04 03:37 | -10.97398 | 99.96666 | 32961 ft | 526 kts | 128° |
| 2026-05-04 03:38 | -11.01946 | 100.02494 | 32958 ft | 525 kts | 128° |
| 2026-05-04 03:38 | -11.06632 | 100.08203 | 32961 ft | 526 kts | 130° |
| 2026-05-04 03:39 | -11.11361 | 100.13885 | 32958 ft | 525 kts | 129° |
| 2026-05-04 03:39 | -11.16055 | 100.19570 | 32960 ft | 524 kts | 129° |
| 2026-05-04 03:40 | -11.20733 | 100.25272 | 32962 ft | 525 kts | 129° |
| 2026-05-04 03:40 | -11.25423 | 100.31000 | 32964 ft | 527 kts | 129° |
| 2026-05-04 03:41 | -11.30090 | 100.36700 | 32963 ft | 526 kts | 129° |
| 2026-05-04 03:41 | -11.34810 | 100.42468 | 32963 ft | 527 kts | 129° |
| 2026-05-04 03:42 | -11.39509 | 100.48214 | 32963 ft | 528 kts | 129° |
| 2026-05-04 03:42 | -11.44211 | 100.53964 | 32965 ft | 527 kts | 129° |
| 2026-05-04 03:43 | -11.48899 | 100.59703 | 32963 ft | 526 kts | 129° |
| 2026-05-04 03:43 | -11.53565 | 100.65418 | 32963 ft | 528 kts | 129° |
| 2026-05-04 03:44 | -11.58269 | 100.71181 | 32965 ft | 528 kts | 129° |
| 2026-05-04 03:44 | -11.63000 | 100.76982 | 32966 ft | 528 kts | 129° |
| 2026-05-04 03:45 | -11.67658 | 100.82696 | 32966 ft | 528 kts | 129° |
| 2026-05-04 03:45 | -11.72361 | 100.88469 | 32966 ft | 529 kts | 129° |
| 2026-05-04 03:46 | -11.77059 | 100.94240 | 32966 ft | 529 kts | 129° |
| 2026-05-04 03:46 | -11.81753 | 101.00008 | 32966 ft | 529 kts | 129° |
| 2026-05-04 03:47 | -11.86457 | 101.05793 | 32969 ft | 529 kts | 130° |
| 2026-05-04 03:47 | -11.91162 | 101.11581 | 32969 ft | 530 kts | 130° |
| 2026-05-04 03:48 | -11.95895 | 101.17408 | 32966 ft | 529 kts | 130° |
| 2026-05-04 03:48 | -12.00590 | 101.23191 | 32972 ft | 529 kts | 129° |
| 2026-05-04 03:49 | -12.05260 | 101.28949 | 32974 ft | 529 kts | 129° |
| 2026-05-04 03:49 | -12.09988 | 101.34780 | 32966 ft | 530 kts | 130° |
| 2026-05-04 03:50 | -12.14690 | 101.40582 | 32973 ft | 530 kts | 130° |
| 2026-05-04 03:50 | -12.19388 | 101.46385 | 32974 ft | 530 kts | 130° |
| 2026-05-04 03:51 | -12.24064 | 101.52161 | 32958 ft | 530 kts | 130° |
| 2026-05-04 03:51 | -12.28759 | 101.57967 | 32972 ft | 530 kts | 130° |
| 2026-05-04 03:52 | -12.33453 | 101.63773 | 32973 ft | 530 kts | 130° |
| 2026-05-04 03:52 | -12.38147 | 101.69585 | 32978 ft | 530 kts | 130° |
| 2026-05-04 03:53 | -12.42845 | 101.75404 | 32977 ft | 531 kts | 130° |
| 2026-05-04 03:53 | -12.47552 | 101.81238 | 32976 ft | 531 kts | 130° |
| 2026-05-04 03:54 | -12.52248 | 101.87063 | 32982 ft | 531 kts | 130° |
| 2026-05-04 03:54 | -12.56947 | 101.92894 | 32983 ft | 531 kts | 130° |
| 2026-05-04 03:55 | -12.61643 | 101.98725 | 32964 ft | 530 kts | 129° |
| 2026-05-04 03:55 | -12.66331 | 102.04550 | 32966 ft | 530 kts | 129° |
| 2026-05-04 03:56 | -12.71016 | 102.10375 | 32983 ft | 530 kts | 129° |
| 2026-05-04 03:56 | -12.75698 | 102.16201 | 32983 ft | 530 kts | 129° |
| 2026-05-04 03:57 | -12.80391 | 102.22043 | 32966 ft | 531 kts | 129° |
| 2026-05-04 03:57 | -12.85076 | 102.27880 | 32971 ft | 530 kts | 129° |
| 2026-05-04 03:58 | -12.92110 | 102.36650 | 32976 ft | 532 kts | 130° |
| 2026-05-04 03:58 | -12.96805 | 102.42509 | 32974 ft | 532 kts | 129° |
| 2026-05-04 03:59 | -13.01503 | 102.48374 | 32973 ft | 532 kts | 129° |
| 2026-05-04 03:59 | -13.06191 | 102.54231 | 32978 ft | 531 kts | 129° |
| 2026-05-04 04:00 | -13.10879 | 102.60093 | 32974 ft | 530 kts | 129° |
| 2026-05-04 04:00 | -13.15560 | 102.65950 | 32990 ft | 532 kts | 129° |
| 2026-05-04 04:01 | -13.20247 | 102.71819 | 32978 ft | 531 kts | 129° |
| 2026-05-04 04:01 | -13.24926 | 102.77680 | 32979 ft | 531 kts | 129° |
| 2026-05-04 04:02 | -13.29604 | 102.83545 | 32978 ft | 530 kts | 129° |
| 2026-05-04 04:02 | -13.34278 | 102.89408 | 32979 ft | 529 kts | 129° |
| 2026-05-04 04:03 | -13.38947 | 102.95270 | 32977 ft | 532 kts | 129° |
| 2026-05-04 04:03 | -13.43627 | 103.01148 | 32977 ft | 531 kts | 129° |
| 2026-05-04 04:04 | -13.48295 | 103.07016 | 32976 ft | 530 kts | 129° |
| 2026-05-04 04:04 | -13.52942 | 103.12862 | 32977 ft | 531 kts | 130° |
| 2026-05-04 04:05 | -13.57651 | 103.18790 | 32981 ft | 533 kts | 130° |
| 2026-05-04 04:05 | -13.62336 | 103.24691 | 32982 ft | 533 kts | 130° |
| 2026-05-04 04:06 | -13.67020 | 103.30594 | 32977 ft | 532 kts | 129° |
| 2026-05-04 04:06 | -13.71685 | 103.36479 | 32981 ft | 530 kts | 130° |
| 2026-05-04 04:07 | -13.76352 | 103.42371 | 32983 ft | 531 kts | 130° |
| 2026-05-04 04:07 | -13.80990 | 103.48228 | 32983 ft | 532 kts | 129° |
| 2026-05-04 04:08 | -13.85683 | 103.54161 | 32981 ft | 531 kts | 130° |
| 2026-05-04 04:08 | -13.90343 | 103.60056 | 32979 ft | 531 kts | 130° |
| 2026-05-04 04:09 | -13.95008 | 103.65960 | 32979 ft | 532 kts | 130° |
| 2026-05-04 04:09 | -13.99645 | 103.71834 | 32982 ft | 532 kts | 129° |
| 2026-05-04 04:10 | -14.04308 | 103.77746 | 32981 ft | 532 kts | 129° |
| 2026-05-04 04:10 | -14.08970 | 103.83658 | 32984 ft | 532 kts | 129° |
| 2026-05-04 04:11 | -14.13634 | 103.89580 | 32992 ft | 531 kts | 130° |
| 2026-05-04 04:11 | -14.18279 | 103.95481 | 32979 ft | 530 kts | 130° |
| 2026-05-04 04:12 | -14.22919 | 104.01379 | 32984 ft | 530 kts | 130° |
| 2026-05-04 04:12 | -14.27557 | 104.07279 | 32983 ft | 530 kts | 130° |
| 2026-05-04 04:13 | -14.32195 | 104.13184 | 32987 ft | 530 kts | 130° |
| 2026-05-04 04:13 | -14.36837 | 104.19098 | 32983 ft | 530 kts | 130° |
| 2026-05-04 04:14 | -14.41469 | 104.25004 | 32979 ft | 529 kts | 130° |
| 2026-05-04 04:14 | -14.46090 | 104.30901 | 32979 ft | 528 kts | 130° |
| 2026-05-04 04:15 | -14.50714 | 104.36805 | 32982 ft | 530 kts | 130° |
| 2026-05-04 04:15 | -14.55329 | 104.42701 | 32978 ft | 532 kts | 130° |
| 2026-05-04 04:16 | -14.59977 | 104.48644 | 32983 ft | 532 kts | 130° |
| 2026-05-04 04:16 | -14.64623 | 104.54590 | 32984 ft | 532 kts | 130° |
| 2026-05-04 04:17 | -14.69274 | 104.60547 | 32984 ft | 532 kts | 130° |
| 2026-05-04 04:17 | -14.73917 | 104.66497 | 32984 ft | 532 kts | 130° |
| 2026-05-04 04:18 | -14.77779 | 104.71450 | 32983 ft | 532 kts | 130° |
| 2026-05-04 04:18 | -14.82418 | 104.77404 | 32985 ft | 533 kts | 130° |
| 2026-05-04 04:19 | -14.87074 | 104.83384 | 32985 ft | 535 kts | 130° |
| 2026-05-04 04:19 | -14.91731 | 104.89370 | 32983 ft | 535 kts | 130° |
| 2026-05-04 04:20 | -14.96388 | 104.95362 | 32975 ft | 534 kts | 130° |
| 2026-05-04 04:20 | -15.01038 | 105.01349 | 32984 ft | 533 kts | 130° |
| 2026-05-04 04:21 | -15.05651 | 105.07349 | 32986 ft | 533 kts | 130° |
| 2026-05-04 04:21 | -15.10247 | 105.13362 | 32984 ft | 533 kts | 130° |
| 2026-05-04 04:22 | -15.14854 | 105.19387 | 32987 ft | 534 kts | 130° |
| 2026-05-04 04:22 | -15.19467 | 105.25416 | 32987 ft | 535 kts | 130° |
| 2026-05-04 04:23 | -15.24086 | 105.31455 | 32985 ft | 535 kts | 130° |
| 2026-05-04 04:23 | -15.28701 | 105.37494 | 32991 ft | 535 kts | 130° |
| 2026-05-04 04:24 | -15.33319 | 105.43543 | 32989 ft | 535 kts | 130° |
| 2026-05-04 04:24 | -15.37928 | 105.49585 | 32990 ft | 535 kts | 130° |
| 2026-05-04 04:25 | -15.42537 | 105.55631 | 32990 ft | 535 kts | 130° |
| 2026-05-04 04:25 | -15.47148 | 105.61684 | 32991 ft | 536 kts | 130° |
| 2026-05-04 04:26 | -15.51772 | 105.67760 | 32993 ft | 537 kts | 130° |
| 2026-05-04 04:26 | -15.56404 | 105.73851 | 32993 ft | 537 kts | 130° |
| 2026-05-04 04:27 | -15.61024 | 105.79932 | 32993 ft | 537 kts | 130° |
| 2026-05-04 04:27 | -15.65645 | 105.86018 | 32993 ft | 537 kts | 130° |
| 2026-05-04 04:28 | -15.70263 | 105.92105 | 32994 ft | 537 kts | 130° |
| 2026-05-04 04:28 | -15.74885 | 105.98204 | 33000 ft | 537 kts | 130° |
| 2026-05-04 04:29 | -15.79502 | 106.04301 | 32994 ft | 538 kts | 130° |
| 2026-05-04 04:29 | -15.84121 | 106.10404 | 32993 ft | 538 kts | 130° |
| 2026-05-04 04:30 | -15.88739 | 106.16512 | 32995 ft | 538 kts | 130° |
| 2026-05-04 04:30 | -15.93331 | 106.22589 | 32996 ft | 538 kts | 130° |
| 2026-05-04 04:31 | -15.97972 | 106.28738 | 32993 ft | 538 kts | 130° |
| 2026-05-04 04:31 | -16.02577 | 106.34843 | 32997 ft | 538 kts | 130° |
| 2026-05-04 04:32 | -16.07190 | 106.40965 | 33002 ft | 538 kts | 130° |
| 2026-05-04 04:32 | -16.11811 | 106.47102 | 33001 ft | 540 kts | 130° |
| 2026-05-04 04:33 | -16.16412 | 106.53217 | 32998 ft | 540 kts | 130° |
| 2026-05-04 04:33 | -16.21040 | 106.59374 | 32998 ft | 540 kts | 130° |
| 2026-05-04 04:34 | -16.25665 | 106.65533 | 33001 ft | 540 kts | 130° |
| 2026-05-04 04:34 | -16.30317 | 106.71733 | 33002 ft | 540 kts | 130° |
| 2026-05-04 04:35 | -16.34908 | 106.77855 | 33002 ft | 539 kts | 130° |
| 2026-05-04 04:35 | -16.39522 | 106.84016 | 33002 ft | 540 kts | 131° |
| 2026-05-04 04:36 | -16.44148 | 106.90195 | 33001 ft | 541 kts | 131° |
| 2026-05-04 04:36 | -16.48778 | 106.96388 | 33004 ft | 542 kts | 131° |
| 2026-05-04 04:37 | -16.58033 | 107.08780 | 33004 ft | 541 kts | 131° |
| 2026-05-04 04:38 | -16.62650 | 107.14970 | 33004 ft | 541 kts | 131° |
| 2026-05-04 04:38 | -16.67273 | 107.21176 | 33012 ft | 541 kts | 131° |
| 2026-05-04 04:39 | -16.71863 | 107.27395 | 32996 ft | 542 kts | 130° |
| 2026-05-04 04:39 | -16.76425 | 107.33660 | 32976 ft | 542 kts | 130° |
| 2026-05-04 04:40 | -16.80960 | 107.39953 | 32966 ft | 543 kts | 130° |
| 2026-05-04 04:40 | -16.85478 | 107.46278 | 32963 ft | 543 kts | 130° |
| 2026-05-04 04:41 | -16.89973 | 107.52614 | 32962 ft | 543 kts | 129° |
| 2026-05-04 04:41 | -16.94449 | 107.58952 | 32970 ft | 543 kts | 129° |
| 2026-05-04 04:42 | -16.98923 | 107.65313 | 32992 ft | 543 kts | 129° |
| 2026-05-04 04:42 | -17.03372 | 107.71686 | 32976 ft | 544 kts | 129° |
| 2026-05-04 04:43 | -17.07809 | 107.78096 | 32933 ft | 545 kts | 129° |
| 2026-05-04 04:43 | -17.12225 | 107.84536 | 32922 ft | 545 kts | 129° |
| 2026-05-04 04:44 | -17.16624 | 107.90991 | 32919 ft | 545 kts | 129° |
| 2026-05-04 04:44 | -17.21013 | 107.97458 | 32926 ft | 545 kts | 129° |
| 2026-05-04 04:45 | -17.25389 | 108.03917 | 32938 ft | 545 kts | 129° |
| 2026-05-04 04:47 | -17.40677 | 108.26593 | 32989 ft | 544 kts | 128° |
| 2026-05-04 04:47 | -17.45027 | 108.33093 | 32984 ft | 545 kts | 128° |
| 2026-05-04 04:48 | -17.49368 | 108.39605 | 32975 ft | 545 kts | 128° |
| 2026-05-04 04:49 | -17.60117 | 108.55932 | 32959 ft | 547 kts | 128° |
| 2026-05-04 04:49 | -17.64429 | 108.62576 | 32935 ft | 548 kts | 128° |
| 2026-05-04 04:50 | -17.68673 | 108.69135 | 32931 ft | 548 kts | 128° |
| 2026-05-04 04:50 | -17.72959 | 108.75749 | 32929 ft | 548 kts | 128° |
| 2026-05-04 04:51 | -17.77253 | 108.82353 | 32941 ft | 547 kts | 128° |
| 2026-05-04 04:51 | -17.81564 | 108.88951 | 32963 ft | 546 kts | 128° |
| 2026-05-04 04:52 | -17.85874 | 108.95509 | 33002 ft | 546 kts | 129° |
| 2026-05-04 04:52 | -17.90216 | 109.02072 | 32993 ft | 547 kts | 129° |
| 2026-05-04 04:53 | -17.94579 | 109.08599 | 32978 ft | 547 kts | 129° |
| 2026-05-04 04:53 | -17.99000 | 109.15126 | 32961 ft | 548 kts | 130° |
| 2026-05-04 04:54 | -18.03464 | 109.21601 | 32956 ft | 547 kts | 130° |
| 2026-05-04 04:54 | -18.07981 | 109.28028 | 32957 ft | 547 kts | 131° |
| 2026-05-04 04:55 | -18.12556 | 109.34416 | 32989 ft | 546 kts | 131° |
| 2026-05-04 04:55 | -18.17168 | 109.40751 | 32992 ft | 546 kts | 132° |
| 2026-05-04 04:56 | -18.21827 | 109.47044 | 32990 ft | 545 kts | 133° |
| 2026-05-04 04:56 | -18.26544 | 109.53294 | 33005 ft | 545 kts | 133° |
| 2026-05-04 04:57 | -18.31316 | 109.59493 | 33010 ft | 544 kts | 134° |
| 2026-05-04 04:57 | -18.36133 | 109.65631 | 33018 ft | 543 kts | 134° |
| 2026-05-04 04:58 | -18.40987 | 109.71703 | 33029 ft | 543 kts | 135° |
| 2026-05-04 04:58 | -18.45894 | 109.77763 | 33023 ft | 543 kts | 135° |
| 2026-05-04 04:59 | -18.50831 | 109.83792 | 33011 ft | 543 kts | 136° |
| 2026-05-04 04:59 | -18.55800 | 109.89786 | 33009 ft | 543 kts | 136° |
| 2026-05-04 05:00 | -18.60808 | 109.95745 | 33001 ft | 543 kts | 136° |
| 2026-05-04 05:01 | -18.68392 | 110.04601 | 32995 ft | 542 kts | 137° |
| 2026-05-04 05:01 | -18.73493 | 110.10453 | 33015 ft | 542 kts | 138° |
| 2026-05-04 05:02 | -18.77767 | 110.15303 | 33003 ft | 542 kts | 138° |
| 2026-05-04 05:02 | -18.82937 | 110.21095 | 32997 ft | 542 kts | 139° |
| 2026-05-04 05:03 | -18.88147 | 110.26835 | 33001 ft | 542 kts | 139° |
| 2026-05-04 05:04 | -18.98724 | 110.38132 | 33028 ft | 540 kts | 141° |
| 2026-05-04 05:04 | -19.04083 | 110.43698 | 33024 ft | 540 kts | 141° |
| 2026-05-04 05:06 | -19.25992 | 110.65291 | 33070 ft | 536 kts | 144° |
| 2026-05-04 05:07 | -19.31602 | 110.70518 | 33068 ft | 536 kts | 145° |
| 2026-05-04 05:07 | -19.37238 | 110.75671 | 33065 ft | 536 kts | 146° |
| 2026-05-04 05:09 | -19.63142 | 110.98017 | 33079 ft | 533 kts | 149° |
| 2026-05-04 05:10 | -19.69054 | 111.02832 | 33073 ft | 532 kts | 149° |
| 2026-05-04 05:10 | -19.74936 | 111.07521 | 33064 ft | 532 kts | 150° |
| 2026-05-04 05:11 | -19.80934 | 111.12194 | 33064 ft | 531 kts | 151° |
| 2026-05-04 05:11 | -19.86903 | 111.16741 | 33083 ft | 531 kts | 152° |
| 2026-05-04 05:12 | -19.92945 | 111.21263 | 33059 ft | 531 kts | 152° |
| 2026-05-04 05:12 | -19.99058 | 111.25748 | 33042 ft | 531 kts | 153° |
| 2026-05-04 05:13 | -20.05182 | 111.30133 | 33031 ft | 530 kts | 154° |
| 2026-05-04 05:13 | -20.11340 | 111.34447 | 33024 ft | 530 kts | 154° |
| 2026-05-04 05:14 | -20.17494 | 111.38674 | 33026 ft | 529 kts | 155° |
| 2026-05-04 05:14 | -20.23704 | 111.42863 | 33039 ft | 528 kts | 155° |
| 2026-05-04 05:15 | -20.29938 | 111.46999 | 33048 ft | 528 kts | 155° |
| 2026-05-04 05:15 | -20.36199 | 111.51077 | 33053 ft | 527 kts | 156° |
| 2026-05-04 05:16 | -20.42484 | 111.55083 | 33067 ft | 527 kts | 157° |
| 2026-05-04 05:16 | -20.48802 | 111.59067 | 33048 ft | 527 kts | 157° |
| 2026-05-04 05:17 | -20.55136 | 111.63034 | 33026 ft | 528 kts | 157° |
| 2026-05-04 05:17 | -20.61471 | 111.66958 | 33027 ft | 527 kts | 158° |
| 2026-05-04 05:18 | -20.67841 | 111.70836 | 33048 ft | 526 kts | 158° |
| 2026-05-04 05:18 | -20.74233 | 111.74656 | 33072 ft | 526 kts | 159° |
| 2026-05-04 05:19 | -20.80646 | 111.78427 | 33070 ft | 526 kts | 159° |
| 2026-05-04 05:19 | -20.87083 | 111.82160 | 33075 ft | 526 kts | 159° |
| 2026-05-04 05:20 | -20.93536 | 111.85854 | 33096 ft | 525 kts | 160° |
| 2026-05-04 05:20 | -20.99992 | 111.89489 | 33136 ft | 524 kts | 161° |
| 2026-05-04 05:21 | -21.06478 | 111.93041 | 33163 ft | 523 kts | 161° |
| 2026-05-04 05:21 | -21.13000 | 111.96469 | 33167 ft | 521 kts | 162° |
| 2026-05-04 05:22 | -21.19561 | 111.99754 | 33158 ft | 520 kts | 164° |
| 2026-05-04 05:22 | -21.26167 | 112.02884 | 33143 ft | 518 kts | 165° |
| 2026-05-04 05:23 | -21.32812 | 112.05840 | 33151 ft | 516 kts | 167° |
| 2026-05-04 05:23 | -21.39490 | 112.08572 | 33141 ft | 513 kts | 169° |
| 2026-05-04 05:24 | -21.46219 | 112.11068 | 33128 ft | 510 kts | 171° |
| 2026-05-04 05:24 | -21.52942 | 112.13339 | 33120 ft | 508 kts | 172° |
| 2026-05-04 05:25 | -21.59753 | 112.15420 | 33149 ft | 505 kts | 174° |
| 2026-05-04 05:25 | -21.66555 | 112.17268 | 33155 ft | 502 kts | 176° |
| 2026-05-04 05:26 | -21.73355 | 112.18882 | 33156 ft | 499 kts | 178° |
| 2026-05-04 05:26 | -21.80163 | 112.20270 | 33157 ft | 497 kts | 179° |
| 2026-05-04 05:28 | -22.07342 | 112.23564 | 33187 ft | 487 kts | 186° |
| 2026-05-04 05:29 | -22.14097 | 112.23825 | 33197 ft | 485 kts | 188° |
| 2026-05-04 05:29 | -22.20831 | 112.23911 | 33224 ft | 483 kts | 189° |
| 2026-05-04 05:31 | -22.47530 | 112.22691 | 33241 ft | 477 kts | 194° |
| 2026-05-04 05:32 | -22.54122 | 112.22020 | 33255 ft | 475 kts | 195° |
| 2026-05-04 05:33 | -22.63932 | 112.20736 | 33270 ft | 472 kts | 197° |
| 2026-05-04 05:33 | -22.70384 | 112.19589 | 33260 ft | 468 kts | 199° |
| 2026-05-04 05:34 | -22.76742 | 112.18145 | 33231 ft | 466 kts | 202° |
| 2026-05-04 05:34 | -22.83002 | 112.16427 | 33227 ft | 463 kts | 204° |
| 2026-05-04 05:35 | -22.89144 | 112.14412 | 33207 ft | 460 kts | 207° |
| 2026-05-04 05:35 | -22.95135 | 112.12070 | 33176 ft | 456 kts | 210° |
| 2026-05-04 05:36 | -23.00923 | 112.09394 | 33145 ft | 453 kts | 213° |
| 2026-05-04 05:36 | -23.06543 | 112.06352 | 33101 ft | 450 kts | 216° |
| 2026-05-04 05:37 | -23.11956 | 112.02966 | 33095 ft | 447 kts | 219° |
| 2026-05-04 05:37 | -23.17127 | 111.99270 | 33086 ft | 444 kts | 221° |
| 2026-05-04 05:38 | -23.24433 | 111.93171 | 33086 ft | 439 kts | 226° |
| 2026-05-04 05:38 | -23.28977 | 111.88765 | 33088 ft | 436 kts | 229° |
| 2026-05-04 05:39 | -23.35294 | 111.81697 | 33107 ft | 433 kts | 233° |
| 2026-05-04 05:40 | -23.41035 | 111.74162 | 33116 ft | 430 kts | 237° |
| 2026-05-04 05:40 | -23.44571 | 111.68935 | 33165 ft | 428 kts | 239° |
| 2026-05-04 05:41 | -23.47887 | 111.63570 | 33185 ft | 426 kts | 241° |
| 2026-05-04 05:41 | -23.50995 | 111.58085 | 33214 ft | 425 kts | 243° |
| 2026-05-04 05:42 | -23.53910 | 111.52490 | 33237 ft | 424 kts | 245° |
| 2026-05-04 05:42 | -23.56640 | 111.46813 | 33248 ft | 423 kts | 246° |
| 2026-05-04 05:43 | -23.59205 | 111.41057 | 33255 ft | 422 kts | 248° |
| 2026-05-04 05:45 | -23.68181 | 111.17467 | 33261 ft | 421 kts | 251° |
| 2026-05-04 05:47 | -23.75530 | 110.94383 | 33268 ft | 420 kts | 253° |
| 2026-05-04 05:47 | -23.77301 | 110.88309 | 33268 ft | 420 kts | 254° |
| 2026-05-04 05:48 | -23.79018 | 110.82218 | 33268 ft | 420 kts | 255° |
| 2026-05-04 05:48 | -23.80694 | 110.76105 | 33272 ft | 420 kts | 255° |
| 2026-05-04 05:49 | -23.82334 | 110.69988 | 33275 ft | 420 kts | 255° |
| 2026-05-04 05:49 | -23.83937 | 110.63861 | 33274 ft | 420 kts | 256° |
| 2026-05-04 05:51 | -23.89975 | 110.39231 | 33258 ft | 420 kts | 257° |
| 2026-05-04 05:52 | -23.91409 | 110.33051 | 33264 ft | 420 kts | 257° |
| 2026-05-04 05:52 | -23.92810 | 110.26862 | 33262 ft | 420 kts | 258° |
| 2026-05-04 05:54 | -23.97999 | 110.01988 | 33277 ft | 420 kts | 259° |
| 2026-05-04 05:55 | -23.99203 | 109.95723 | 33262 ft | 421 kts | 259° |
| 2026-05-04 05:55 | -24.00352 | 109.89495 | 33249 ft | 421 kts | 260° |
| 2026-05-04 05:56 | -24.01464 | 109.83167 | 33241 ft | 421 kts | 260° |
| 2026-05-04 05:56 | -24.02515 | 109.76868 | 33241 ft | 421 kts | 261° |
| 2026-05-04 05:57 | -24.03520 | 109.70556 | 33232 ft | 422 kts | 261° |
| 2026-05-04 05:57 | -24.04475 | 109.64263 | 33228 ft | 422 kts | 262° |
| 2026-05-04 05:58 | -24.05360 | 109.57925 | 33247 ft | 421 kts | 262° |
| 2026-05-04 05:58 | -24.06158 | 109.51585 | 33270 ft | 421 kts | 263° |
| 2026-05-04 05:59 | -24.06881 | 109.45226 | 33288 ft | 421 kts | 264° |
| 2026-05-04 05:59 | -24.07543 | 109.38869 | 33295 ft | 421 kts | 264° |
| 2026-05-04 06:00 | -24.08155 | 109.32497 | 33293 ft | 421 kts | 265° |
| 2026-05-04 06:00 | -24.08709 | 109.26122 | 33289 ft | 421 kts | 265° |
| 2026-05-04 06:01 | -24.09211 | 109.19726 | 33286 ft | 421 kts | 265° |
| 2026-05-04 06:03 | -24.10937 | 108.94126 | 33250 ft | 421 kts | 266° |
| 2026-05-04 06:05 | -24.12639 | 108.65368 | 33290 ft | 421 kts | 267° |
| 2026-05-04 06:06 | -24.12991 | 108.59007 | 33285 ft | 421 kts | 267° |
| 2026-05-04 06:06 | -24.13342 | 108.52571 | 33274 ft | 421 kts | 267° |
| 2026-05-04 06:07 | -24.13685 | 108.46175 | 33266 ft | 421 kts | 267° |
| 2026-05-04 06:07 | -24.14017 | 108.39809 | 33269 ft | 421 kts | 267° |
| 2026-05-04 06:08 | -24.14335 | 108.33408 | 33284 ft | 421 kts | 267° |
| 2026-05-04 06:08 | -24.14636 | 108.26967 | 33296 ft | 421 kts | 268° |
| 2026-05-04 06:09 | -24.14922 | 108.20612 | 33297 ft | 421 kts | 268° |
| 2026-05-04 06:11 | -24.16022 | 107.94970 | 33269 ft | 422 kts | 268° |
| 2026-05-04 06:13 | -24.17106 | 107.69328 | 33283 ft | 421 kts | 268° |
| 2026-05-04 06:14 | -24.17943 | 107.46937 | 33304 ft | 420 kts | 268° |
| 2026-05-04 06:15 | -24.18152 | 107.40544 | 33300 ft | 420 kts | 268° |
| 2026-05-04 06:15 | -24.18357 | 107.34141 | 33298 ft | 420 kts | 269° |
| 2026-05-04 06:16 | -24.18560 | 107.27750 | 33297 ft | 420 kts | 269° |
| 2026-05-04 06:16 | -24.18750 | 107.21360 | 33292 ft | 420 kts | 269° |
| 2026-05-04 06:17 | -24.18922 | 107.14976 | 33297 ft | 420 kts | 269° |
| 2026-05-04 06:17 | -24.19071 | 107.08581 | 33291 ft | 420 kts | 269° |
| 2026-05-04 06:18 | -24.19197 | 107.02195 | 33297 ft | 419 kts | 269° |
| 2026-05-04 06:20 | -24.19625 | 106.76687 | 33314 ft | 418 kts | 270° |
| 2026-05-04 06:21 | -24.19853 | 106.60799 | 33309 ft | 418 kts | 270° |
| 2026-05-04 06:22 | -24.19951 | 106.54424 | 33308 ft | 418 kts | 270° |
| 2026-05-04 06:25 | -24.20533 | 106.09905 | 33312 ft | 417 kts | 270° |
| 2026-05-04 06:26 | -24.20634 | 106.03543 | 33313 ft | 417 kts | 270° |
| 2026-05-04 06:26 | -24.20747 | 105.97193 | 33324 ft | 417 kts | 270° |
| 2026-05-04 06:27 | -24.21200 | 105.81337 | 33331 ft | 416 kts | 269° |
| 2026-05-04 06:28 | -24.21455 | 105.74993 | 33330 ft | 416 kts | 269° |
| 2026-05-04 06:28 | -24.21742 | 105.68700 | 33324 ft | 417 kts | 268° |
| 2026-05-04 06:29 | -24.22067 | 105.62366 | 33328 ft | 417 kts | 268° |
| 2026-05-04 06:29 | -24.22427 | 105.56037 | 33326 ft | 416 kts | 268° |
| 2026-05-04 06:30 | -24.22811 | 105.49703 | 33331 ft | 416 kts | 268° |
| 2026-05-04 06:30 | -24.23212 | 105.43384 | 33336 ft | 416 kts | 268° |
| 2026-05-04 06:31 | -24.23626 | 105.37068 | 33337 ft | 416 kts | 268° |
| 2026-05-04 06:31 | -24.24049 | 105.30745 | 33339 ft | 416 kts | 268° |
| 2026-05-04 06:33 | -24.25785 | 105.06587 | 33339 ft | 415 kts | 267° |
| 2026-05-04 06:34 | -24.26264 | 105.00276 | 33330 ft | 415 kts | 267° |
| 2026-05-04 06:34 | -24.26740 | 104.93977 | 33306 ft | 415 kts | 267° |
| 2026-05-04 06:36 | -24.28634 | 104.68717 | 33267 ft | 416 kts | 267° |
| 2026-05-04 06:37 | -24.29091 | 104.62400 | 33263 ft | 416 kts | 267° |
| 2026-05-04 06:37 | -24.29543 | 104.56081 | 33255 ft | 416 kts | 267° |
| 2026-05-04 06:38 | -24.29994 | 104.49750 | 33261 ft | 416 kts | 267° |
| 2026-05-04 06:40 | -24.31822 | 104.24463 | 33274 ft | 416 kts | 267° |
| 2026-05-04 06:40 | -24.32288 | 104.18187 | 33286 ft | 416 kts | 267° |
| 2026-05-04 06:41 | -24.32765 | 104.11874 | 33290 ft | 416 kts | 267° |
| 2026-05-04 06:41 | -24.33252 | 104.05566 | 33298 ft | 415 kts | 267° |
| 2026-05-04 06:42 | -24.33748 | 103.99246 | 33295 ft | 415 kts | 267° |
| 2026-05-04 06:44 | -24.35829 | 103.74027 | 33301 ft | 415 kts | 266° |
| 2026-05-04 06:44 | -24.36378 | 103.67730 | 33297 ft | 415 kts | 266° |
| 2026-05-04 06:45 | -24.36935 | 103.61438 | 33292 ft | 415 kts | 266° |
| 2026-05-04 06:45 | -24.37497 | 103.55145 | 33292 ft | 415 kts | 266° |
| 2026-05-04 06:46 | -24.38064 | 103.48852 | 33306 ft | 415 kts | 266° |
| 2026-05-04 06:46 | -24.38637 | 103.42552 | 33305 ft | 414 kts | 266° |
| 2026-05-04 06:48 | -24.40947 | 103.17410 | 33282 ft | 414 kts | 266° |
| 2026-05-04 06:50 | -24.43245 | 102.92255 | 33274 ft | 414 kts | 266° |
| 2026-05-04 06:51 | -24.43810 | 102.85973 | 33268 ft | 414 kts | 266° |
| 2026-05-04 06:51 | -24.44370 | 102.79691 | 33264 ft | 414 kts | 267° |
| 2026-05-04 06:52 | -24.44923 | 102.73405 | 33269 ft | 414 kts | 267° |
| 2026-05-04 06:52 | -24.45468 | 102.67109 | 33265 ft | 414 kts | 267° |
| 2026-05-04 06:53 | -24.46000 | 102.60822 | 33259 ft | 414 kts | 267° |
| 2026-05-04 06:53 | -24.46513 | 102.54536 | 33252 ft | 414 kts | 267° |
| 2026-05-04 06:54 | -24.47004 | 102.48248 | 33244 ft | 414 kts | 267° |
| 2026-05-04 06:54 | -24.47472 | 102.41943 | 33244 ft | 414 kts | 268° |
| 2026-05-04 06:55 | -24.47918 | 102.35648 | 33258 ft | 414 kts | 268° |
| 2026-05-04 06:55 | -24.48340 | 102.29352 | 33254 ft | 414 kts | 268° |
| 2026-05-04 06:57 | -24.49653 | 102.04190 | 33257 ft | 413 kts | 269° |
| 2026-05-04 06:58 | -24.49870 | 101.97888 | 33252 ft | 413 kts | 270° |
| 2026-05-04 06:58 | -24.50037 | 101.91576 | 33248 ft | 413 kts | 270° |
| 2026-05-04 06:59 | -24.50152 | 101.85274 | 33247 ft | 413 kts | 271° |
| 2026-05-04 06:59 | -24.50214 | 101.78971 | 33239 ft | 413 kts | 271° |
| 2026-05-04 07:01 | -24.49423 | 101.53793 | 33208 ft | 413 kts | 275° |
| 2026-05-04 07:02 | -24.48952 | 101.47507 | 33202 ft | 413 kts | 275° |
| 2026-05-04 07:02 | -24.48402 | 101.41241 | 33199 ft | 413 kts | 276° |
| 2026-05-04 07:03 | -24.47783 | 101.34979 | 33202 ft | 412 kts | 277° |
| 2026-05-04 07:03 | -24.47101 | 101.28722 | 33220 ft | 412 kts | 277° |
| 2026-05-04 07:04 | -24.46364 | 101.22523 | 33221 ft | 412 kts | 277° |
| 2026-05-04 07:04 | -24.45569 | 101.16292 | 33222 ft | 413 kts | 278° |
| 2026-05-04 07:05 | -24.44731 | 101.10064 | 33220 ft | 413 kts | 278° |
| 2026-05-04 07:05 | -24.43857 | 101.03845 | 33219 ft | 413 kts | 278° |
| 2026-05-04 07:06 | -24.42489 | 100.94519 | 33220 ft | 413 kts | 279° |
| 2026-05-04 07:07 | -24.41545 | 100.88310 | 33220 ft | 413 kts | 279° |
| 2026-05-04 07:09 | -24.37576 | 100.63488 | 33227 ft | 413 kts | 279° |
| 2026-05-04 07:09 | -24.36550 | 100.57297 | 33229 ft | 413 kts | 279° |
| 2026-05-04 07:10 | -24.35513 | 100.51106 | 33231 ft | 413 kts | 279° |
| 2026-05-04 07:12 | -24.31337 | 100.26315 | 33203 ft | 414 kts | 279° |
| 2026-05-04 07:12 | -24.30285 | 100.20159 | 33209 ft | 414 kts | 279° |
| 2026-05-04 07:13 | -24.29209 | 100.13954 | 33200 ft | 414 kts | 279° |
| 2026-05-04 07:13 | -24.28112 | 100.07761 | 33204 ft | 414 kts | 280° |
| 2026-05-04 07:14 | -24.25308 | 99.92297 | 33224 ft | 414 kts | 280° |
| 2026-05-04 07:15 | -24.24172 | 99.86119 | 33223 ft | 414 kts | 280° |
| 2026-05-04 07:15 | -24.23031 | 99.79944 | 33235 ft | 414 kts | 280° |
| 2026-05-04 07:16 | -24.21881 | 99.73755 | 33234 ft | 414 kts | 280° |
| 2026-05-04 07:16 | -24.20732 | 99.67574 | 33228 ft | 415 kts | 280° |
| 2026-05-04 07:17 | -24.19583 | 99.61387 | 33212 ft | 415 kts | 280° |
| 2026-05-04 07:17 | -24.18437 | 99.55197 | 33202 ft | 415 kts | 280° |
| 2026-05-04 07:18 | -24.17299 | 99.49037 | 33216 ft | 415 kts | 280° |
| 2026-05-04 07:18 | -24.16156 | 99.42847 | 33219 ft | 415 kts | 280° |
| 2026-05-04 07:19 | -24.15003 | 99.36656 | 33219 ft | 415 kts | 280° |
| 2026-05-04 07:19 | -24.13840 | 99.30459 | 33207 ft | 416 kts | 280° |
| 2026-05-04 07:20 | -24.12667 | 99.24252 | 33200 ft | 416 kts | 280° |
| 2026-05-04 07:20 | -24.11489 | 99.18051 | 33203 ft | 416 kts | 280° |
| 2026-05-04 07:22 | -24.06981 | 98.94287 | 33178 ft | 417 kts | 280° |
| 2026-05-04 07:23 | -24.05809 | 98.88068 | 33179 ft | 417 kts | 280° |
| 2026-05-04 07:23 | -24.04642 | 98.81852 | 33177 ft | 417 kts | 280° |
| 2026-05-04 07:24 | -24.03480 | 98.75631 | 33172 ft | 417 kts | 280° |
| 2026-05-04 07:24 | -24.02318 | 98.69401 | 33176 ft | 418 kts | 279° |
| 2026-05-04 07:26 | -23.97615 | 98.44495 | 33177 ft | 418 kts | 280° |
| 2026-05-04 07:27 | -23.96436 | 98.38268 | 33177 ft | 418 kts | 280° |
| 2026-05-04 07:27 | -23.95259 | 98.32042 | 33186 ft | 418 kts | 279° |
| 2026-05-04 07:28 | -23.94072 | 98.25814 | 33187 ft | 419 kts | 280° |
| 2026-05-04 07:28 | -23.92876 | 98.19574 | 33184 ft | 419 kts | 280° |
| 2026-05-04 07:29 | -23.91688 | 98.13380 | 33184 ft | 419 kts | 280° |
| 2026-05-04 07:29 | -23.90485 | 98.07106 | 33173 ft | 419 kts | 280° |
| 2026-05-04 07:30 | -23.89290 | 98.00866 | 33179 ft | 420 kts | 280° |
| 2026-05-04 07:30 | -23.88097 | 97.94630 | 33180 ft | 420 kts | 279° |
| 2026-05-04 07:31 | -23.86899 | 97.88423 | 33186 ft | 420 kts | 280° |
| 2026-05-04 07:33 | -23.82106 | 97.63362 | 33102 ft | 422 kts | 280° |
| 2026-05-04 07:33 | -23.80891 | 97.57089 | 33106 ft | 422 kts | 280° |
| 2026-05-04 07:34 | -23.79647 | 97.50822 | 33121 ft | 423 kts | 280° |
| 2026-05-04 07:34 | -23.78371 | 97.44558 | 33135 ft | 423 kts | 281° |
| 2026-05-04 07:35 | -23.77067 | 97.38291 | 33147 ft | 423 kts | 281° |
| 2026-05-04 07:35 | -23.75740 | 97.32038 | 33153 ft | 423 kts | 281° |
| 2026-05-04 07:36 | -23.74390 | 97.25788 | 33157 ft | 423 kts | 281° |
| 2026-05-04 07:38 | -23.68765 | 97.00862 | 33191 ft | 424 kts | 282° |
| 2026-05-04 07:38 | -23.67300 | 96.94634 | 33188 ft | 424 kts | 282° |
| 2026-05-04 07:39 | -23.65811 | 96.88399 | 33200 ft | 424 kts | 282° |
| 2026-05-04 07:39 | -23.64305 | 96.82183 | 33199 ft | 424 kts | 282° |
| 2026-05-04 07:40 | -23.62773 | 96.75965 | 33194 ft | 425 kts | 282° |
| 2026-05-04 07:40 | -23.61215 | 96.69736 | 33187 ft | 425 kts | 283° |
| 2026-05-04 07:41 | -23.59650 | 96.63525 | 33146 ft | 426 kts | 283° |
| 2026-05-04 07:41 | -23.58103 | 96.57285 | 33143 ft | 426 kts | 283° |
| 2026-05-04 07:42 | -23.56564 | 96.51056 | 33153 ft | 426 kts | 283° |
| 2026-05-04 07:42 | -23.55010 | 96.44828 | 33166 ft | 426 kts | 283° |
| 2026-05-04 07:43 | -23.53429 | 96.38597 | 33165 ft | 426 kts | 283° |
| 2026-05-04 07:43 | -23.51824 | 96.32384 | 33168 ft | 426 kts | 283° |
| 2026-05-04 07:44 | -23.50186 | 96.26177 | 33170 ft | 427 kts | 284° |
| 2026-05-04 07:44 | -23.48512 | 96.19978 | 33166 ft | 427 kts | 284° |
| 2026-05-04 07:45 | -23.46806 | 96.13816 | 33170 ft | 427 kts | 284° |
| 2026-05-04 07:45 | -23.45052 | 96.07635 | 33165 ft | 427 kts | 285° |
| 2026-05-04 07:46 | -23.43255 | 96.01464 | 33160 ft | 428 kts | 285° |
| 2026-05-04 07:46 | -23.41413 | 95.95297 | 33153 ft | 429 kts | 285° |
| 2026-05-04 07:47 | -23.39528 | 95.89136 | 33150 ft | 429 kts | 286° |
| 2026-05-04 07:49 | -23.31521 | 95.64606 | 33125 ft | 430 kts | 288° |
| 2026-05-04 07:49 | -23.29427 | 95.58501 | 33121 ft | 431 kts | 288° |
| 2026-05-04 07:50 | -23.27307 | 95.52392 | 33109 ft | 432 kts | 288° |
| 2026-05-04 07:50 | -23.25151 | 95.46276 | 33078 ft | 433 kts | 288° |
| 2026-05-04 07:51 | -23.22961 | 95.40175 | 33076 ft | 433 kts | 289° |
| 2026-05-04 07:51 | -23.20731 | 95.34090 | 33100 ft | 433 kts | 289° |
| 2026-05-04 07:52 | -23.18459 | 95.28020 | 33116 ft | 434 kts | 289° |
| 2026-05-04 07:52 | -23.16142 | 95.21959 | 33123 ft | 434 kts | 290° |
| 2026-05-04 07:54 | -23.06431 | 94.97898 | 33137 ft | 435 kts | 291° |
| 2026-05-04 07:55 | -23.03887 | 94.91932 | 33136 ft | 436 kts | 292° |
| 2026-05-04 07:55 | -23.01305 | 94.85977 | 33095 ft | 436 kts | 292° |
| 2026-05-04 07:56 | -22.98696 | 94.80014 | 33086 ft | 437 kts | 292° |
| 2026-05-04 07:56 | -22.96065 | 94.74062 | 33079 ft | 438 kts | 292° |
| 2026-05-04 07:57 | -22.93405 | 94.68118 | 33082 ft | 438 kts | 293° |
| 2026-05-04 07:57 | -22.90716 | 94.62191 | 33088 ft | 438 kts | 293° |
| 2026-05-04 07:58 | -22.87991 | 94.56272 | 33103 ft | 438 kts | 294° |
| 2026-05-04 07:58 | -22.85244 | 94.50378 | 33109 ft | 438 kts | 294° |
| 2026-05-04 07:59 | -22.82487 | 94.44526 | 33111 ft | 439 kts | 294° |
| 2026-05-04 07:59 | -22.79684 | 94.38647 | 33109 ft | 439 kts | 294° |
| 2026-05-04 08:00 | -22.76841 | 94.32769 | 33103 ft | 440 kts | 295° |
| 2026-05-04 08:02 | -22.65064 | 94.09556 | 33134 ft | 439 kts | 296° |
| 2026-05-04 08:02 | -22.62029 | 94.03805 | 33149 ft | 439 kts | 296° |
| 2026-05-04 08:03 | -22.58972 | 93.98082 | 33153 ft | 440 kts | 296° |
| 2026-05-04 08:03 | -22.55889 | 93.92369 | 33148 ft | 440 kts | 297° |
| 2026-05-04 08:04 | -22.52777 | 93.86657 | 33136 ft | 440 kts | 297° |
| 2026-05-04 08:04 | -22.49647 | 93.80963 | 33136 ft | 441 kts | 297° |
| 2026-05-04 08:05 | -22.46493 | 93.75274 | 33126 ft | 442 kts | 297° |
| 2026-05-04 08:05 | -22.43320 | 93.69588 | 33113 ft | 442 kts | 297° |
| 2026-05-04 08:06 | -22.40123 | 93.63901 | 33082 ft | 442 kts | 297° |
| 2026-05-04 08:06 | -22.36921 | 93.58254 | 33112 ft | 440 kts | 298° |
| 2026-05-04 08:08 | -22.25567 | 93.38817 | 33252 ft | 438 kts | 299° |
| 2026-05-04 08:08 | -22.23915 | 93.36052 | 33232 ft | 438 kts | 299° |
| 2026-05-04 08:10 | -22.11079 | 93.14937 | 33113 ft | 440 kts | 300° |
| 2026-05-04 08:11 | -22.09356 | 93.12154 | 33084 ft | 440 kts | 300° |
| 2026-05-04 08:11 | -22.04262 | 93.04008 | 33124 ft | 438 kts | 300° |
| 2026-05-04 08:12 | -22.00829 | 92.98588 | 33150 ft | 437 kts | 300° |
| 2026-05-04 08:12 | -21.97382 | 92.93191 | 33173 ft | 437 kts | 300° |
| 2026-05-04 08:13 | -21.93925 | 92.87807 | 33178 ft | 437 kts | 301° |
| 2026-05-04 08:13 | -21.90457 | 92.82427 | 33161 ft | 438 kts | 301° |
| 2026-05-04 08:14 | -21.86974 | 92.77037 | 33142 ft | 438 kts | 301° |
| 2026-05-04 08:16 | -21.72996 | 92.55521 | 33083 ft | 439 kts | 301° |
| 2026-05-04 08:16 | -21.69491 | 92.50146 | 33100 ft | 438 kts | 301° |
| 2026-05-04 08:17 | -21.66018 | 92.44825 | 33115 ft | 438 kts | 301° |
| 2026-05-04 08:17 | -21.62526 | 92.39476 | 33136 ft | 437 kts | 301° |
| 2026-05-04 08:19 | -21.48586 | 92.18039 | 33085 ft | 439 kts | 301° |
| 2026-05-04 08:20 | -21.45118 | 92.12650 | 33054 ft | 439 kts | 300° |
| 2026-05-04 08:20 | -21.41656 | 92.07240 | 33047 ft | 439 kts | 300° |
| 2026-05-04 08:21 | -21.38208 | 92.01830 | 33044 ft | 439 kts | 300° |
| 2026-05-04 08:21 | -21.34772 | 91.96422 | 33065 ft | 439 kts | 300° |
| 2026-05-04 08:22 | -21.31345 | 91.91014 | 33086 ft | 438 kts | 300° |
| 2026-05-04 08:24 | -21.17767 | 91.69256 | 33036 ft | 440 kts | 300° |
| 2026-05-04 08:24 | -21.14426 | 91.63806 | 33028 ft | 440 kts | 299° |
| 2026-05-04 08:25 | -21.11082 | 91.58322 | 33011 ft | 440 kts | 299° |
| 2026-05-04 08:25 | -21.07748 | 91.52831 | 33044 ft | 439 kts | 299° |
| 2026-05-04 08:27 | -20.94599 | 91.30865 | 33065 ft | 439 kts | 298° |
| 2026-05-04 08:28 | -20.91350 | 91.25331 | 33050 ft | 439 kts | 298° |
| 2026-05-04 08:28 | -20.88123 | 91.19790 | 33039 ft | 439 kts | 298° |
| 2026-05-04 08:29 | -20.85529 | 91.15307 | 33033 ft | 439 kts | 298° |